Observation data for Clyde on 07/11/2018      Previous  Date  Next       Current Mesonet Observations  Soil Data  Daily Summary Page  Observations in Plain Language
KCL2 110501Z 12007KT 24/20 A3011 RMK A01 T02400201  RH  079%=      5-min Rain = 0
KCL2 110502Z 12008KT 24/20 A3011 RMK A01 T02400201  RH  079%=      5-min Rain = 0
KCL2 110503Z 12007KT 24/20 A3011 RMK A01 T02390200  RH  079%=      5-min Rain = 0
KCL2 110504Z 13006KT 24/20 A3011 RMK A01 T02400201  RH  079%=      5-min Rain = 0
KCL2 110505Z 12007KT 24/20 A301 RMK A01 T02400201  RH  079%=      5-min Rain = 0
KCL2 110506Z 12008KT 24/20 A301 RMK A01 T02390201  RH  079%=      5-min Rain = 0
KCL2 110507Z 13008KT 24/20 A301 RMK A01 T02390201  RH  079%=      5-min Rain = 0
KCL2 110508Z 12008KT 24/20 A3011 RMK A01 T02390201  RH  079%=      5-min Rain = 0
KCL2 110509Z 13007KT 24/20 A3011 RMK A01 T02400201  RH  079%=      5-min Rain = 0
KCL2 110510Z 13008KT 24/20 A3011 RMK A01 T02400201  RH  079%=      5-min Rain = 0
KCL2 110511Z 13007KT 24/20 A3011 RMK A01 T02400200  RH  079%=      5-min Rain = 0
KCL2 110512Z 13007KT 24/20 A3011 RMK A01 T02400201  RH  079%=      5-min Rain = 0
KCL2 110513Z 13007KT 24/20 A301 RMK A01 T02400201  RH  079%=      5-min Rain = 0
KCL2 110514Z 13007KT 24/20 A301 RMK A01 T02400201  RH  079%=      5-min Rain = 0
KCL2 110515Z 13007KT 24/20 A301 RMK A01 T02390201  RH  079%=      5-min Rain = 0
KCL2 110516Z 13008KT 24/20 A301 RMK A01 T02390201  RH  079%=      5-min Rain = 0
KCL2 110517Z 13008KT 24/20 A301 RMK A01 T02390201  RH  079%=      5-min Rain = 0
KCL2 110518Z 13007KT 24/20 A301 RMK A01 T02390201  RH  079%=      5-min Rain = 0
KCL2 110519Z 13008KT 24/20 A301 RMK A01 T02380201  RH  079%=      5-min Rain = 0
KCL2 110520Z 13008KT 24/20 A301 RMK A01 T02380200  RH  079%=      5-min Rain = 0
KCL2 110521Z 13008KT 24/20 A301 RMK A01 T02380200  RH  079%=      5-min Rain = 0
KCL2 110522Z 13009KT 24/20 A301 RMK A01 T02380201  RH  079%=      5-min Rain = 0
KCL2 110523Z 13008KT 24/20 A301 RMK A01 T02380200  RH  079%=      5-min Rain = 0
KCL2 110524Z 13009KT 24/20 A301 RMK A01 T02380200  RH  079%=      5-min Rain = 0
KCL2 110525Z 13008KT 24/20 A301 RMK A01 T02380200  RH  079%=      5-min Rain = 0
KCL2 110526Z 13009KT 24/20 A301 RMK A01 T02390200  RH  079%=      5-min Rain = 0
KCL2 110527Z 13008KT 24/20 A301 RMK A01 T02390200  RH  079%=      5-min Rain = 0
KCL2 110528Z 13007KT 24/20 A301 RMK A01 T02390200  RH  079%=      5-min Rain = 0
KCL2 110529Z 13007KT 24/20 A301 RMK A01 T02390200  RH  079%=      5-min Rain = 0
KCL2 110530Z 13008KT 24/20 A301 RMK A01 T02390200  RH  079%=      5-min Rain = 0
KCL2 110531Z 13008KT 24/20 A301 RMK A01 T02390201  RH  079%=      5-min Rain = 0
KCL2 110532Z 13008KT 24/20 A301 RMK A01 T02390201  RH  079%=      5-min Rain = 0
KCL2 110533Z 13008KT 24/20 A301 RMK A01 T02390201  RH  079%=      5-min Rain = 0
KCL2 110534Z 13007KT 24/20 A301 RMK A01 T02390201  RH  079%=      5-min Rain = 0
KCL2 110535Z 13007KT 24/20 A301 RMK A01 T02380200  RH  079%=      5-min Rain = 0
KCL2 110536Z 13008KT 24/20 A301 RMK A01 T02380200  RH  079%=      5-min Rain = 0
KCL2 110537Z 14008KT 24/20 A301 RMK A01 T02380200  RH  079%=      5-min Rain = 0
KCL2 110538Z 13008KT 24/20 A301 RMK A01 T02380200  RH  079%=      5-min Rain = 0
KCL2 110539Z 13008KT 24/20 A301 RMK A01 T02380200  RH  079%=      5-min Rain = 0
KCL2 110540Z 14008KT 24/20 A301 RMK A01 T02380200  RH  079%=      5-min Rain = 0
KCL2 110541Z 14007KT 24/20 A301 RMK A01 T02390200  RH  079%=      5-min Rain = 0
KCL2 110542Z 14008KT 24/20 A301 RMK A01 T02380200  RH  079%=      5-min Rain = 0
KCL2 110543Z 14008KT 24/20 A301 RMK A01 T02380200  RH  079%=      5-min Rain = 0
KCL2 110544Z 14007KT 24/20 A301 RMK A01 T02390199  RH  079%=      5-min Rain = 0
KCL2 110545Z 14008KT 24/20 A301 RMK A01 T02390199  RH  078%=      5-min Rain = 0
KCL2 110546Z 14008KT 24/20 A301 RMK A01 T02390199  RH  078%=      5-min Rain = 0
KCL2 110547Z 14009KT 24/20 A301 RMK A01 T02390199  RH  078%=      5-min Rain = 0
KCL2 110548Z 14009KT 24/20 A301 RMK A01 T02400199  RH  078%=      5-min Rain = 0
KCL2 110549Z 14008KT 24/20 A301 RMK A01 T02400199  RH  078%=      5-min Rain = 0
KCL2 110550Z 14009KT 24/20 A301 RMK A01 T02400199  RH  078%=      5-min Rain = 0
KCL2 110551Z 14009KT 24/20 A301 RMK A01 T02400199  RH  078%=      5-min Rain = 0
KCL2 110552Z 14008KT 24/20 A301 RMK A01 T02400198  RH  078%=      5-min Rain = 0
KCL2 110553Z 15007KT 24/20 A301 RMK A01 T02400198  RH  077%=      5-min Rain = 0
KCL2 110554Z 15008KT 24/20 A301 RMK A01 T02410199  RH  077%=      5-min Rain = 0
KCL2 110555Z 15008KT 24/20 A301 RMK A01 T02410199  RH  078%=      5-min Rain = 0
KCL2 110556Z 15008KT 24/20 A301 RMK A01 T02400199  RH  078%=      5-min Rain = 0
KCL2 110557Z 15008KT 24/20 A3009 RMK A01 T02400199  RH  078%=      5-min Rain = 0
KCL2 110558Z 15008KT 24/20 A301 RMK A01 T02400199  RH  078%=      5-min Rain = 0
KCL2 110559Z 15008KT 24/20 A3009 RMK A01 T02400198  RH  077%=      5-min Rain = 0
KCL2 110600Z 15009KT 24/20 A3009 RMK A01 T02400198  RH  077%=      5-min Rain = 0
KCL2 110601Z 15008KT 24/20 A3009 RMK A01 T02400198  RH  077%=      5-min Rain = 0
KCL2 110602Z 15009KT 24/20 A3009 RMK A01 T02400198  RH  077%=      5-min Rain = 0
KCL2 110603Z 15009KT 24/20 A3009 RMK A01 T02400198  RH  077%=      5-min Rain = 0
KCL2 110604Z 15008KT 24/20 A3009 RMK A01 T02400198  RH  077%=      5-min Rain = 0
KCL2 110605Z 15009KT 24/20 A3009 RMK A01 T02400198  RH  077%=      5-min Rain = 0
KCL2 110606Z 15009KT 24/20 A3009 RMK A01 T02400198  RH  078%=      5-min Rain = 0
KCL2 110607Z 16009KT 24/20 A3009 RMK A01 T02390197  RH  077%=      5-min Rain = 0
KCL2 110608Z 16009KT 24/20 A3009 RMK A01 T02390197  RH  077%=      5-min Rain = 0
KCL2 110609Z 15008KT 24/20 A3009 RMK A01 T02400198  RH  077%=      5-min Rain = 0
KCL2 110610Z 15010KT 24/20 A3009 RMK A01 T02400198  RH  077%=      5-min Rain = 0
KCL2 110611Z 16009KT 24/20 A3009 RMK A01 T02400198  RH  077%=      5-min Rain = 0
KCL2 110612Z 16008KT 24/20 A3009 RMK A01 T02400198  RH  077%=      5-min Rain = 0
KCL2 110613Z 16007KT 24/20 A3009 RMK A01 T02400197  RH  077%=      5-min Rain = 0
KCL2 110614Z 16007KT 24/20 A3009 RMK A01 T02400198  RH  077%=      5-min Rain = 0
KCL2 110615Z 16008KT 24/20 A3009 RMK A01 T02390198  RH  078%=      5-min Rain = 0
KCL2 110616Z 16008KT 24/20 A3009 RMK A01 T02390198  RH  078%=      5-min Rain = 0
KCL2 110617Z 16008KT 24/20 A3009 RMK A01 T02390198  RH  078%=      5-min Rain = 0
KCL2 110618Z 16008KT 24/20 A3009 RMK A01 T02390198  RH  078%=      5-min Rain = 0
KCL2 110619Z 16007KT 24/20 A3009 RMK A01 T02390198  RH  078%=      5-min Rain = 0
KCL2 110620Z 16007KT 24/20 A3009 RMK A01 T02390198  RH  078%=      5-min Rain = 0
KCL2 110621Z 16008KT 24/20 A3009 RMK A01 T02380198  RH  078%=      5-min Rain = 0
KCL2 110622Z 16008KT 24/20 A3009 RMK A01 T02380198  RH  078%=      5-min Rain = 0
KCL2 110623Z 16008KT 24/20 A3009 RMK A01 T02380198  RH  078%=      5-min Rain = 0
KCL2 110624Z 16009KT 24/20 A3009 RMK A01 T02370197  RH  078%=      5-min Rain = 0
KCL2 110625Z 16008KT 24/20 A3009 RMK A01 T02370197  RH  078%=      5-min Rain = 0
KCL2 110626Z 16008KT 24/20 A3009 RMK A01 T02370197  RH  078%=      5-min Rain = 0
KCL2 110627Z 16008KT 24/20 A3009 RMK A01 T02380197  RH  078%=      5-min Rain = 0
KCL2 110628Z 16008KT 24/20 A3009 RMK A01 T02380198  RH  078%=      5-min Rain = 0
KCL2 110629Z 16008KT 24/20 A3009 RMK A01 T02370197  RH  078%=      5-min Rain = 0
KCL2 110630Z 16008KT 24/20 A3009 RMK A01 T02370197  RH  078%=      5-min Rain = 0
KCL2 110631Z 16008KT 24/20 A3009 RMK A01 T02370197  RH  078%=      5-min Rain = 0
KCL2 110632Z 16008KT 24/20 A3009 RMK A01 T02370197  RH  078%=      5-min Rain = 0
KCL2 110633Z 16008KT 24/20 A3009 RMK A01 T02370197  RH  078%=      5-min Rain = 0
KCL2 110634Z 16008KT 24/20 A3009 RMK A01 T02360196  RH  078%=      5-min Rain = 0
KCL2 110635Z 16007KT 24/20 A3009 RMK A01 T02360196  RH  078%=      5-min Rain = 0
KCL2 110636Z 16008KT 24/20 A3009 RMK A01 T02370197  RH  078%=      5-min Rain = 0
KCL2 110637Z 16008KT 24/20 A3009 RMK A01 T02370197  RH  078%=      5-min Rain = 0
KCL2 110638Z 16009KT 24/20 A3009 RMK A01 T02370197  RH  078%=      5-min Rain = 0
KCL2 110639Z 16008KT 24/20 A3009 RMK A01 T02360196  RH  078%=      5-min Rain = 0
KCL2 110640Z 16008KT 24/20 A3009 RMK A01 T02360197  RH  078%=      5-min Rain = 0
KCL2 110641Z 16008KT 24/20 A3009 RMK A01 T02360197  RH  079%=      5-min Rain = 0
KCL2 110642Z 16008KT 24/20 A3009 RMK A01 T02350196  RH  079%=      5-min Rain = 0
KCL2 110643Z 16008KT 24/20 A3009 RMK A01 T02360197  RH  079%=      5-min Rain = 0
KCL2 110644Z 16008KT 24/20 A3009 RMK A01 T02350197  RH  079%=      5-min Rain = 0
KCL2 110645Z 16008KT 24/20 A3009 RMK A01 T02350196  RH  079%=      5-min Rain = 0
KCL2 110646Z 16007KT 24/20 A301 RMK A01 T02350196  RH  079%=      5-min Rain = 0
KCL2 110647Z 16008KT 24/20 A301 RMK A01 T02350197  RH  079%=      5-min Rain = 0
KCL2 110648Z 16008KT 24/20 A3009 RMK A01 T02350197  RH  079%=      5-min Rain = 0
KCL2 110649Z 16008KT 23/20 A301 RMK A01 T02340196  RH  079%=      5-min Rain = 0
KCL2 110650Z 16008KT 24/20 A3009 RMK A01 T02350197  RH  079%=      5-min Rain = 0
KCL2 110651Z 16007KT 24/20 A3009 RMK A01 T02350196  RH  079%=      5-min Rain = 0
KCL2 110652Z 16008KT 23/20 A3009 RMK A01 T02340196  RH  079%=      5-min Rain = 0
KCL2 110653Z 16008KT 23/20 A3009 RMK A01 T02340196  RH  079%=      5-min Rain = 0
KCL2 110654Z 16008KT 23/20 A3009 RMK A01 T02340196  RH  079%=      5-min Rain = 0
KCL2 110655Z 16008KT 23/20 A301 RMK A01 T02340196  RH  079%=      5-min Rain = 0
KCL2 110656Z 16007KT 23/20 A3009 RMK A01 T02340196  RH  079%=      5-min Rain = 0
KCL2 110657Z 16008KT 23/20 A301 RMK A01 T02340196  RH  079%=      5-min Rain = 0
KCL2 110658Z 16007KT 23/20 A301 RMK A01 T02340196  RH  079%=      5-min Rain = 0
KCL2 110659Z 16007KT 23/20 A301 RMK A01 T02340196  RH  079%=      5-min Rain = 0
KCL2 110700Z 15008KT 23/20 A301 RMK A01 T02340196  RH  079%=      5-min Rain = 0
KCL2 110701Z 16007KT 23/20 A301 RMK A01 T02340196  RH  079%=      5-min Rain = 0
KCL2 110702Z 15008KT 23/20 A301 RMK A01 T02340195  RH  079%=      5-min Rain = 0
KCL2 110703Z 16007KT 23/20 A301 RMK A01 T02340195  RH  079%=      5-min Rain = 0
KCL2 110704Z 16006KT 23/20 A301 RMK A01 T02340196  RH  079%=      5-min Rain = 0
KCL2 110705Z 16007KT 23/20 A301 RMK A01 T02330195  RH  079%=      5-min Rain = 0
KCL2 110706Z 16007KT 23/20 A301 RMK A01 T02330195  RH  079%=      5-min Rain = 0
KCL2 110707Z 16007KT 23/20 A301 RMK A01 T02320195  RH  080%=      5-min Rain = 0
KCL2 110708Z 16008KT 23/20 A301 RMK A01 T02320195  RH  079%=      5-min Rain = 0
KCL2 110709Z 16008KT 23/20 A301 RMK A01 T02320195  RH  079%=      5-min Rain = 0
KCL2 110710Z 16007KT 23/19 A301 RMK A01 T02320194  RH  079%=      5-min Rain = 0
KCL2 110711Z 16007KT 23/19 A301 RMK A01 T02330194  RH  079%=      5-min Rain = 0
KCL2 110712Z 16008KT 23/20 A301 RMK A01 T02330195  RH  079%=      5-min Rain = 0
KCL2 110713Z 16007KT 23/20 A301 RMK A01 T02320195  RH  079%=      5-min Rain = 0
KCL2 110714Z 15008KT 23/19 A301 RMK A01 T02320194  RH  079%=      5-min Rain = 0
KCL2 110715Z 15008KT 23/19 A301 RMK A01 T02320194  RH  079%=      5-min Rain = 0
KCL2 110716Z 16008KT 23/19 A301 RMK A01 T02320194  RH  079%=      5-min Rain = 0
KCL2 110717Z 16008KT 23/20 A301 RMK A01 T02320195  RH  079%=      5-min Rain = 0
KCL2 110718Z 16008KT 23/19 A301 RMK A01 T02320194  RH  079%=      5-min Rain = 0
KCL2 110719Z 16008KT 23/20 A301 RMK A01 T02320195  RH  079%=      5-min Rain = 0
KCL2 110720Z 16007KT 23/20 A301 RMK A01 T02320195  RH  080%=      5-min Rain = 0
KCL2 110721Z 16008KT 23/20 A301 RMK A01 T02320195  RH  080%=      5-min Rain = 0
KCL2 110722Z 16007KT 23/19 A301 RMK A01 T02310194  RH  080%=      5-min Rain = 0
KCL2 110723Z 16008KT 23/19 A301 RMK A01 T02310194  RH  080%=      5-min Rain = 0
KCL2 110724Z 16008KT 23/19 A301 RMK A01 T02310194  RH  080%=      5-min Rain = 0
KCL2 110725Z 16008KT 23/19 A301 RMK A01 T02310194  RH  080%=      5-min Rain = 0
KCL2 110726Z 16008KT 23/19 A301 RMK A01 T02300194  RH  080%=      5-min Rain = 0
KCL2 110727Z 16008KT 23/19 A301 RMK A01 T02300194  RH  080%=      5-min Rain = 0
KCL2 110728Z 16008KT 23/19 A301 RMK A01 T02310194  RH  080%=      5-min Rain = 0
KCL2 110729Z 16008KT 23/19 A301 RMK A01 T02300194  RH  080%=      5-min Rain = 0
KCL2 110730Z 16007KT 23/19 A301 RMK A01 T02300193  RH  080%=      5-min Rain = 0
KCL2 110731Z 16007KT 23/19 A301 RMK A01 T02300193  RH  080%=      5-min Rain = 0
KCL2 110732Z 16008KT 23/19 A301 RMK A01 T02300194  RH  080%=      5-min Rain = 0
KCL2 110733Z 16007KT 23/19 A301 RMK A01 T02300194  RH  080%=      5-min Rain = 0
KCL2 110734Z 16007KT 23/19 A301 RMK A01 T02300194  RH  080%=      5-min Rain = 0
KCL2 110735Z 16007KT 23/19 A301 RMK A01 T02300194  RH  080%=      5-min Rain = 0
KCL2 110736Z 16007KT 23/19 A301 RMK A01 T02300194  RH  080%=      5-min Rain = 0
KCL2 110737Z 16006KT 23/19 A301 RMK A01 T02290194  RH  080%=      5-min Rain = 0
KCL2 110738Z 16006KT 23/19 A301 RMK A01 T02290194  RH  080%=      5-min Rain = 0
KCL2 110739Z 16006KT 23/19 A301 RMK A01 T02290194  RH  080%=      5-min Rain = 0
KCL2 110740Z 16007KT 23/19 A301 RMK A01 T02290194  RH  080%=      5-min Rain = 0
KCL2 110741Z 16008KT 23/19 A301 RMK A01 T02290193  RH  081%=      5-min Rain = 0
KCL2 110742Z 16007KT 23/19 A301 RMK A01 T02290193  RH  080%=      5-min Rain = 0
KCL2 110743Z 16007KT 23/19 A301 RMK A01 T02290193  RH  080%=      5-min Rain = 0
KCL2 110744Z 16007KT 23/19 A301 RMK A01 T02290193  RH  081%=      5-min Rain = 0
KCL2 110745Z 16007KT 23/19 A301 RMK A01 T02290194  RH  081%=      5-min Rain = 0
KCL2 110746Z 16006KT 23/19 A301 RMK A01 T02280193  RH  081%=      5-min Rain = 0
KCL2 110747Z 16007KT 23/19 A301 RMK A01 T02280193  RH  081%=      5-min Rain = 0
KCL2 110748Z 16006KT 23/19 A301 RMK A01 T02280193  RH  081%=      5-min Rain = 0
KCL2 110749Z 17005KT 23/19 A301 RMK A01 T02270193  RH  081%=      5-min Rain = 0
KCL2 110750Z 17006KT 23/19 A301 RMK A01 T02280193  RH  081%=      5-min Rain = 0
KCL2 110751Z 17007KT 23/19 A301 RMK A01 T02270193  RH  081%=      5-min Rain = 0
KCL2 110752Z 17006KT 23/19 A301 RMK A01 T02270193  RH  081%=      5-min Rain = 0
KCL2 110753Z 17006KT 23/19 A301 RMK A01 T02280193  RH  081%=      5-min Rain = 0
KCL2 110754Z 17006KT 23/19 A301 RMK A01 T02280193  RH  081%=      5-min Rain = 0
KCL2 110755Z 17006KT 23/19 A301 RMK A01 T02280193  RH  081%=      5-min Rain = 0
KCL2 110756Z 17006KT 23/19 A301 RMK A01 T02270192  RH  081%=      5-min Rain = 0
KCL2 110757Z 17007KT 23/19 A301 RMK A01 T02270192  RH  081%=      5-min Rain = 0
KCL2 110758Z 17006KT 23/19 A301 RMK A01 T02270193  RH  081%=      5-min Rain = 0
KCL2 110759Z 17006KT 23/19 A301 RMK A01 T02260192  RH  081%=      5-min Rain = 0
KCL2 110800Z 17006KT 23/19 A301 RMK A01 T02260192  RH  081%=      5-min Rain = 0
KCL2 110801Z 17006KT 23/19 A301 RMK A01 T02260192  RH  081%=      5-min Rain = 0
KCL2 110802Z 17006KT 23/19 A301 RMK A01 T02260192  RH  081%=      5-min Rain = 0
KCL2 110803Z 17007KT 23/19 A301 RMK A01 T02260192  RH  081%=      5-min Rain = 0
KCL2 110804Z 17007KT 23/19 A301 RMK A01 T02250191  RH  081%=      5-min Rain = 0
KCL2 110805Z 17007KT 23/19 A301 RMK A01 T02260192  RH  081%=      5-min Rain = 0
KCL2 110806Z 17007KT 23/19 A301 RMK A01 T02260192  RH  081%=      5-min Rain = 0
KCL2 110807Z 17007KT 23/19 A301 RMK A01 T02260192  RH  081%=      5-min Rain = 0
KCL2 110808Z 17007KT 23/19 A301 RMK A01 T02260191  RH  081%=      5-min Rain = 0
KCL2 110809Z 17007KT 23/19 A301 RMK A01 T02260191  RH  081%=      5-min Rain = 0
KCL2 110810Z 18006KT 23/19 A301 RMK A01 T02260192  RH  081%=      5-min Rain = 0
KCL2 110811Z 18008KT 23/19 A301 RMK A01 T02250191  RH  081%=      5-min Rain = 0
KCL2 110812Z 17007KT 23/19 A301 RMK A01 T02250190  RH  081%=      5-min Rain = 0
KCL2 110813Z 17007KT 23/19 A301 RMK A01 T02260190  RH  080%=      5-min Rain = 0
KCL2 110814Z 18007KT 23/19 A301 RMK A01 T02250190  RH  080%=      5-min Rain = 0
KCL2 110815Z 18008KT 23/19 A301 RMK A01 T02250190  RH  080%=      5-min Rain = 0
KCL2 110816Z 17007KT 23/19 A301 RMK A01 T02250189  RH  080%=      5-min Rain = 0
KCL2 110817Z 17007KT 23/19 A301 RMK A01 T02260190  RH  080%=      5-min Rain = 0
KCL2 110818Z 17008KT 23/19 A301 RMK A01 T02260189  RH  080%=      5-min Rain = 0
KCL2 110819Z 17008KT 23/19 A301 RMK A01 T02260189  RH  080%=      5-min Rain = 0
KCL2 110820Z 18007KT 23/19 A301 RMK A01 T02260189  RH  080%=      5-min Rain = 0
KCL2 110821Z 17007KT 23/19 A301 RMK A01 T02260189  RH  080%=      5-min Rain = 0
KCL2 110822Z 18007KT 23/19 A301 RMK A01 T02260189  RH  080%=      5-min Rain = 0
KCL2 110823Z 18008KT 23/19 A301 RMK A01 T02250189  RH  080%=      5-min Rain = 0
KCL2 110824Z 18008KT 22/19 A301 RMK A01 T02240189  RH  080%=      5-min Rain = 0
KCL2 110825Z 18008KT 22/19 A301 RMK A01 T02240189  RH  080%=      5-min Rain = 0
KCL2 110826Z 18008KT 23/19 A301 RMK A01 T02250189  RH  080%=      5-min Rain = 0
KCL2 110827Z 18008KT 22/19 A301 RMK A01 T02240188  RH  080%=      5-min Rain = 0
KCL2 110828Z 18008KT 23/19 A301 RMK A01 T02250188  RH  080%=      5-min Rain = 0
KCL2 110829Z 18007KT 23/19 A301 RMK A01 T02250188  RH  080%=      5-min Rain = 0
KCL2 110830Z 18008KT 23/19 A301 RMK A01 T02250188  RH  080%=      5-min Rain = 0
KCL2 110831Z 18008KT 22/19 A301 RMK A01 T02240188  RH  080%=      5-min Rain = 0
KCL2 110832Z 18007KT 22/19 A301 RMK A01 T02240188  RH  080%=      5-min Rain = 0
KCL2 110833Z 18007KT 22/19 A301 RMK A01 T02240187  RH  080%=      5-min Rain = 0
KCL2 110834Z 18006KT 22/19 A301 RMK A01 T02240187  RH  080%=      5-min Rain = 0
KCL2 110835Z 18006KT 22/19 A301 RMK A01 T02230187  RH  080%=      5-min Rain = 0
KCL2 110836Z 18007KT 22/19 A301 RMK A01 T02230187  RH  080%=      5-min Rain = 0
KCL2 110837Z 18007KT 22/19 A301 RMK A01 T02220186  RH  080%=      5-min Rain = 0
KCL2 110838Z 18006KT 22/19 A301 RMK A01 T02230186  RH  080%=      5-min Rain = 0
KCL2 110839Z 18006KT 22/19 A301 RMK A01 T02220186  RH  080%=      5-min Rain = 0
KCL2 110840Z 18007KT 22/19 A301 RMK A01 T02220186  RH  080%=      5-min Rain = 0
KCL2 110841Z 18007KT 22/19 A301 RMK A01 T02220185  RH  080%=      5-min Rain = 0
KCL2 110842Z 18007KT 22/19 A301 RMK A01 T02220185  RH  079%=      5-min Rain = 0
KCL2 110843Z 18006KT 22/19 A301 RMK A01 T02230185  RH  079%=      5-min Rain = 0
KCL2 110844Z 18007KT 22/18 A301 RMK A01 T02230184  RH  079%=      5-min Rain = 0
KCL2 110845Z 18006KT 22/18 A301 RMK A01 T02230184  RH  079%=      5-min Rain = 0
KCL2 110846Z 18007KT 22/19 A301 RMK A01 T02230185  RH  079%=      5-min Rain = 0
KCL2 110847Z 18007KT 22/18 A301 RMK A01 T02230184  RH  079%=      5-min Rain = 0
KCL2 110848Z 18007KT 22/18 A301 RMK A01 T02230184  RH  079%=      5-min Rain = 0
KCL2 110849Z 18006KT 22/18 A301 RMK A01 T02230184  RH  078%=      5-min Rain = 0
KCL2 110850Z 18006KT 22/18 A301 RMK A01 T02230184  RH  079%=      5-min Rain = 0
KCL2 110851Z 18006KT 22/19 A301 RMK A01 T02230185  RH  079%=      5-min Rain = 0
KCL2 110852Z 18006KT 22/19 A301 RMK A01 T02230185  RH  079%=      5-min Rain = 0
KCL2 110853Z 18006KT 22/18 A301 RMK A01 T02230184  RH  079%=      5-min Rain = 0
KCL2 110854Z 18006KT 22/18 A301 RMK A01 T02220184  RH  079%=      5-min Rain = 0
KCL2 110855Z 19007KT 22/18 A301 RMK A01 T02230184  RH  079%=      5-min Rain = 0
KCL2 110856Z 18006KT 22/18 A301 RMK A01 T02220184  RH  079%=      5-min Rain = 0
KCL2 110857Z 19006KT 22/18 A301 RMK A01 T02220184  RH  079%=      5-min Rain = 0
KCL2 110858Z 18006KT 22/18 A301 RMK A01 T02220184  RH  079%=      5-min Rain = 0
KCL2 110859Z 18006KT 22/18 A301 RMK A01 T02210183  RH  079%=      5-min Rain = 0
KCL2 110900Z 18006KT 22/18 A301 RMK A01 T02210183  RH  079%=      5-min Rain = 0
KCL2 110901Z 18006KT 22/18 A301 RMK A01 T02210182  RH  079%=      5-min Rain = 0
KCL2 110902Z 18006KT 22/18 A301 RMK A01 T02220183  RH  079%=      5-min Rain = 0
KCL2 110903Z 18006KT 22/18 A301 RMK A01 T02220183  RH  079%=      5-min Rain = 0
KCL2 110904Z 18007KT 22/18 A301 RMK A01 T02210183  RH  079%=      5-min Rain = 0
KCL2 110905Z 18006KT 22/18 A301 RMK A01 T02210182  RH  078%=      5-min Rain = 0
KCL2 110906Z 18007KT 22/18 A301 RMK A01 T02220182  RH  078%=      5-min Rain = 0
KCL2 110907Z 18006KT 22/18 A301 RMK A01 T02220181  RH  078%=      5-min Rain = 0
KCL2 110908Z 18006KT 22/18 A301 RMK A01 T02230181  RH  077%=      5-min Rain = 0
KCL2 110909Z 18006KT 22/18 A301 RMK A01 T02240182  RH  077%=      5-min Rain = 0
KCL2 110910Z 18006KT 22/18 A301 RMK A01 T02240182  RH  077%=      5-min Rain = 0
KCL2 110911Z 18007KT 22/18 A301 RMK A01 T02230181  RH  077%=      5-min Rain = 0
KCL2 110912Z 18007KT 22/18 A301 RMK A01 T02230181  RH  077%=      5-min Rain = 0
KCL2 110913Z 18007KT 22/18 A301 RMK A01 T02230181  RH  077%=      5-min Rain = 0
KCL2 110914Z 18006KT 22/18 A301 RMK A01 T02230180  RH  077%=      5-min Rain = 0
KCL2 110915Z 18006KT 22/18 A301 RMK A01 T02220180  RH  077%=      5-min Rain = 0
KCL2 110916Z 18007KT 22/18 A301 RMK A01 T02220180  RH  077%=      5-min Rain = 0
KCL2 110917Z 18006KT 22/18 A301 RMK A01 T02220179  RH  077%=      5-min Rain = 0
KCL2 110918Z 18006KT 22/18 A301 RMK A01 T02220179  RH  077%=      5-min Rain = 0
KCL2 110919Z 18006KT 22/18 A3009 RMK A01 T02220179  RH  076%=      5-min Rain = 0
KCL2 110920Z 18007KT 22/18 A3009 RMK A01 T02220179  RH  076%=      5-min Rain = 0
KCL2 110921Z 18006KT 22/18 A3009 RMK A01 T02230178  RH  076%=      5-min Rain = 0
KCL2 110922Z 18007KT 22/18 A3009 RMK A01 T02230179  RH  076%=      5-min Rain = 0
KCL2 110923Z 18007KT 22/18 A3009 RMK A01 T02230178  RH  076%=      5-min Rain = 0
KCL2 110924Z 18006KT 22/18 A3009 RMK A01 T02230178  RH  076%=      5-min Rain = 0
KCL2 110925Z 18007KT 22/18 A3009 RMK A01 T02230177  RH  075%=      5-min Rain = 0
KCL2 110926Z 18007KT 22/18 A3009 RMK A01 T02240177  RH  075%=      5-min Rain = 0
KCL2 110927Z 18007KT 22/18 A3009 RMK A01 T02240177  RH  075%=      5-min Rain = 0
KCL2 110928Z 18006KT 22/18 A3009 RMK A01 T02240176  RH  074%=      5-min Rain = 0
KCL2 110929Z 18006KT 23/18 A3009 RMK A01 T02250177  RH  074%=      5-min Rain = 0
KCL2 110930Z 18007KT 23/18 A3009 RMK A01 T02250177  RH  074%=      5-min Rain = 0
KCL2 110931Z 18006KT 23/18 A3009 RMK A01 T02260177  RH  074%=      5-min Rain = 0
KCL2 110932Z 19006KT 23/18 A3009 RMK A01 T02250177  RH  074%=      5-min Rain = 0
KCL2 110933Z 18007KT 23/18 A3009 RMK A01 T02250176  RH  074%=      5-min Rain = 0
KCL2 110934Z 18006KT 23/18 A3009 RMK A01 T02250176  RH  074%=      5-min Rain = 0
KCL2 110935Z 18006KT 23/18 A3009 RMK A01 T02250176  RH  074%=      5-min Rain = 0
KCL2 110936Z 19007KT 23/18 A3009 RMK A01 T02250176  RH  073%=      5-min Rain = 0
KCL2 110937Z 19006KT 23/18 A3009 RMK A01 T02260175  RH  073%=      5-min Rain = 0
KCL2 110938Z 19007KT 23/18 A3009 RMK A01 T02260175  RH  073%=      5-min Rain = 0
KCL2 110939Z 19006KT 23/18 A3009 RMK A01 T02260175  RH  073%=      5-min Rain = 0
KCL2 110940Z 19006KT 23/18 A3009 RMK A01 T02270175  RH  073%=      5-min Rain = 0
KCL2 110941Z 19007KT 23/18 A3009 RMK A01 T02270175  RH  072%=      5-min Rain = 0
KCL2 110942Z 19007KT 23/18 A301 RMK A01 T02270175  RH  072%=      5-min Rain = 0
KCL2 110943Z 18007KT 23/18 A301 RMK A01 T02270175  RH  073%=      5-min Rain = 0
KCL2 110944Z 19006KT 23/18 A301 RMK A01 T02270175  RH  072%=      5-min Rain = 0
KCL2 110945Z 19007KT 23/18 A301 RMK A01 T02260175  RH  073%=      5-min Rain = 0
KCL2 110946Z 19006KT 23/17 A301 RMK A01 T02260174  RH  073%=      5-min Rain = 0
KCL2 110947Z 19006KT 23/18 A301 RMK A01 T02260175  RH  073%=      5-min Rain = 0
KCL2 110948Z 19006KT 23/18 A301 RMK A01 T02260175  RH  073%=      5-min Rain = 0
KCL2 110949Z 19006KT 23/17 A301 RMK A01 T02260174  RH  073%=      5-min Rain = 0
KCL2 110950Z 19006KT 23/18 A301 RMK A01 T02260175  RH  073%=      5-min Rain = 0
KCL2 110951Z 19006KT 23/17 A301 RMK A01 T02260174  RH  073%=      5-min Rain = 0
KCL2 110952Z 18006KT 23/17 A301 RMK A01 T02260174  RH  072%=      5-min Rain = 0
KCL2 110953Z 19007KT 23/17 A301 RMK A01 T02260174  RH  072%=      5-min Rain = 0
KCL2 110954Z 18006KT 23/17 A301 RMK A01 T02260174  RH  072%=      5-min Rain = 0
KCL2 110955Z 18006KT 23/17 A301 RMK A01 T02260174  RH  072%=      5-min Rain = 0
KCL2 110956Z 18006KT 23/17 A301 RMK A01 T02260174  RH  072%=      5-min Rain = 0
KCL2 110957Z 18007KT 23/17 A301 RMK A01 T02260174  RH  073%=      5-min Rain = 0
KCL2 110958Z 18006KT 23/17 A301 RMK A01 T02260174  RH  072%=      5-min Rain = 0
KCL2 110959Z 18006KT 23/17 A301 RMK A01 T02260174  RH  072%=      5-min Rain = 0
KCL2 111000Z 18006KT 23/17 A301 RMK A01 T02260174  RH  072%=      5-min Rain = 0
KCL2 111001Z 19006KT 23/17 A301 RMK A01 T02260174  RH  072%=      5-min Rain = 0
KCL2 111002Z 18005KT 23/17 A301 RMK A01 T02260174  RH  072%=      5-min Rain = 0
KCL2 111003Z 18006KT 23/17 A301 RMK A01 T02260174  RH  073%=      5-min Rain = 0
KCL2 111004Z 18006KT 23/17 A301 RMK A01 T02250174  RH  073%=      5-min Rain = 0
KCL2 111005Z 19005KT 23/17 A301 RMK A01 T02250173  RH  072%=      5-min Rain = 0
KCL2 111006Z 19006KT 23/17 A301 RMK A01 T02260174  RH  072%=      5-min Rain = 0
KCL2 111007Z 18005KT 23/17 A301 RMK A01 T02250173  RH  072%=      5-min Rain = 0
KCL2 111008Z 19006KT 23/17 A301 RMK A01 T02250173  RH  072%=      5-min Rain = 0
KCL2 111009Z 19006KT 23/17 A301 RMK A01 T02260174  RH  073%=      5-min Rain = 0
KCL2 111010Z 19006KT 23/17 A301 RMK A01 T02250174  RH  073%=      5-min Rain = 0
KCL2 111011Z 19006KT 23/17 A301 RMK A01 T02250174  RH  073%=      5-min Rain = 0
KCL2 111012Z 19006KT 23/17 A301 RMK A01 T02250173  RH  073%=      5-min Rain = 0
KCL2 111013Z 19006KT 22/17 A301 RMK A01 T02240173  RH  073%=      5-min Rain = 0
KCL2 111014Z 19007KT 22/17 A301 RMK A01 T02240173  RH  073%=      5-min Rain = 0
KCL2 111015Z 19006KT 23/17 A301 RMK A01 T02250173  RH  073%=      5-min Rain = 0
KCL2 111016Z 19006KT 23/17 A301 RMK A01 T02250174  RH  073%=      5-min Rain = 0
KCL2 111017Z 19006KT 22/17 A301 RMK A01 T02240174  RH  073%=      5-min Rain = 0
KCL2 111018Z 19006KT 22/17 A301 RMK A01 T02240173  RH  073%=      5-min Rain = 0
KCL2 111019Z 19006KT 22/17 A301 RMK A01 T02240174  RH  073%=      5-min Rain = 0
KCL2 111020Z 19006KT 22/17 A301 RMK A01 T02240173  RH  073%=      5-min Rain = 0
KCL2 111021Z 20006KT 22/17 A301 RMK A01 T02240173  RH  073%=      5-min Rain = 0
KCL2 111022Z 20005KT 22/17 A301 RMK A01 T02240173  RH  073%=      5-min Rain = 0
KCL2 111023Z 19005KT 22/17 A301 RMK A01 T02230173  RH  073%=      5-min Rain = 0
KCL2 111024Z 20006KT 22/17 A301 RMK A01 T02230173  RH  073%=      5-min Rain = 0
KCL2 111025Z 19005KT 22/17 A301 RMK A01 T02230173  RH  073%=      5-min Rain = 0
KCL2 111026Z 19006KT 22/17 A301 RMK A01 T02230173  RH  073%=      5-min Rain = 0
KCL2 111027Z 19006KT 22/17 A301 RMK A01 T02230174  RH  073%=      5-min Rain = 0
KCL2 111028Z 18006KT 22/17 A301 RMK A01 T02230173  RH  074%=      5-min Rain = 0
KCL2 111029Z 18006KT 22/17 A301 RMK A01 T02220173  RH  074%=      5-min Rain = 0
KCL2 111030Z 18006KT 22/17 A301 RMK A01 T02220173  RH  074%=      5-min Rain = 0
KCL2 111031Z 18006KT 22/17 A301 RMK A01 T02220173  RH  074%=      5-min Rain = 0
KCL2 111032Z 18006KT 22/17 A301 RMK A01 T02230173  RH  073%=      5-min Rain = 0
KCL2 111033Z 18006KT 22/17 A3009 RMK A01 T02230173  RH  073%=      5-min Rain = 0
KCL2 111034Z 18006KT 22/17 A3009 RMK A01 T02240173  RH  073%=      5-min Rain = 0
KCL2 111035Z 18006KT 22/17 A3009 RMK A01 T02240173  RH  073%=      5-min Rain = 0
KCL2 111036Z 18006KT 22/17 A3009 RMK A01 T02240173  RH  073%=      5-min Rain = 0
KCL2 111037Z 18006KT 22/17 A3009 RMK A01 T02240173  RH  073%=      5-min Rain = 0
KCL2 111038Z 18006KT 22/17 A3009 RMK A01 T02230173  RH  073%=      5-min Rain = 0
KCL2 111039Z 18006KT 22/17 A3009 RMK A01 T02240173  RH  073%=      5-min Rain = 0
KCL2 111040Z 18006KT 22/17 A3009 RMK A01 T02240173  RH  073%=      5-min Rain = 0
KCL2 111041Z 18006KT 22/17 A3009 RMK A01 T02230173  RH  073%=      5-min Rain = 0
KCL2 111042Z 18006KT 22/17 A3009 RMK A01 T02230173  RH  073%=      5-min Rain = 0
KCL2 111043Z 18006KT 22/17 A3009 RMK A01 T02230173  RH  073%=      5-min Rain = 0
KCL2 111044Z 18006KT 22/17 A3009 RMK A01 T02230173  RH  073%=      5-min Rain = 0
KCL2 111045Z 18006KT 22/17 A3009 RMK A01 T02230173  RH  073%=      5-min Rain = 0
KCL2 111046Z 19006KT 22/17 A3009 RMK A01 T02230173  RH  073%=      5-min Rain = 0
KCL2 111047Z 18007KT 22/17 A3009 RMK A01 T02230173  RH  073%=      5-min Rain = 0
KCL2 111048Z 19006KT 22/17 A3009 RMK A01 T02230173  RH  073%=      5-min Rain = 0
KCL2 111049Z 19006KT 22/17 A3009 RMK A01 T02230173  RH  073%=      5-min Rain = 0
KCL2 111050Z 19006KT 22/17 A3009 RMK A01 T02230173  RH  074%=      5-min Rain = 0
KCL2 111051Z 19006KT 22/17 A3009 RMK A01 T02230173  RH  073%=      5-min Rain = 0
KCL2 111052Z 19006KT 22/17 A3009 RMK A01 T02230173  RH  073%=      5-min Rain = 0
KCL2 111053Z 19006KT 22/17 A3009 RMK A01 T02230173  RH  073%=      5-min Rain = 0
KCL2 111054Z 19006KT 22/17 A3009 RMK A01 T02230173  RH  073%=      5-min Rain = 0
KCL2 111055Z 19006KT 22/17 A3009 RMK A01 T02230173  RH  073%=      5-min Rain = 0
KCL2 111056Z 19006KT 22/17 A3009 RMK A01 T02240173  RH  073%=      5-min Rain = 0
KCL2 111057Z 19007KT 22/17 A3009 RMK A01 T02240173  RH  073%=      5-min Rain = 0
KCL2 111058Z 19007KT 22/17 A3009 RMK A01 T02240173  RH  073%=      5-min Rain = 0
KCL2 111059Z 19006KT 22/17 A3009 RMK A01 T02240173  RH  073%=      5-min Rain = 0
KCL2 111100Z 19007KT 22/17 A3009 RMK A01 T02230173  RH  073%=      5-min Rain = 0
KCL2 111101Z 18006KT 22/17 A3009 RMK A01 T02240173  RH  073%=      5-min Rain = 0
KCL2 111102Z 18006KT 22/17 A3009 RMK A01 T02230173  RH  073%=      5-min Rain = 0
KCL2 111103Z 18006KT 22/17 A3009 RMK A01 T02230173  RH  073%=      5-min Rain = 0
KCL2 111104Z 18006KT 22/17 A3009 RMK A01 T02230173  RH  073%=      5-min Rain = 0
KCL2 111105Z 18006KT 22/17 A3009 RMK A01 T02230173  RH  073%=      5-min Rain = 0
KCL2 111106Z 18005KT 22/17 A3009 RMK A01 T02230173  RH  073%=      5-min Rain = 0
KCL2 111107Z 18005KT 22/17 A3009 RMK A01 T02220173  RH  074%=      5-min Rain = 0
KCL2 111108Z 18005KT 22/17 A3009 RMK A01 T02220174  RH  074%=      5-min Rain = 0
KCL2 111109Z 18005KT 22/17 A301 RMK A01 T02220173  RH  074%=      5-min Rain = 0
KCL2 111110Z 18005KT 22/17 A3009 RMK A01 T02210173  RH  074%=      5-min Rain = 0
KCL2 111111Z 18006KT 22/17 A301 RMK A01 T02210173  RH  074%=      5-min Rain = 0
KCL2 111112Z 18006KT 22/17 A301 RMK A01 T02210173  RH  074%=      5-min Rain = 0
KCL2 111113Z 18006KT 22/17 A301 RMK A01 T02210173  RH  074%=      5-min Rain = 0
KCL2 111114Z 18005KT 22/17 A3009 RMK A01 T02210173  RH  074%=      5-min Rain = 0
KCL2 111115Z 18006KT 22/17 A3009 RMK A01 T02210173  RH  074%=      5-min Rain = 0
KCL2 111116Z 18006KT 22/17 A3009 RMK A01 T02210173  RH  074%=      5-min Rain = 0
KCL2 111117Z 18005KT 22/17 A3009 RMK A01 T02210173  RH  074%=      5-min Rain = 0
KCL2 111118Z 18006KT 22/17 A3009 RMK A01 T02210173  RH  074%=      5-min Rain = 0
KCL2 111119Z 18006KT 22/17 A3009 RMK A01 T02210173  RH  074%=      5-min Rain = 0
KCL2 111120Z 18006KT 22/17 A3009 RMK A01 T02200173  RH  074%=      5-min Rain = 0
KCL2 111121Z 18006KT 22/17 A3009 RMK A01 T02200173  RH  075%=      5-min Rain = 0
KCL2 111122Z 18006KT 22/17 A3009 RMK A01 T02200173  RH  074%=      5-min Rain = 0
KCL2 111123Z 18006KT 22/17 A3009 RMK A01 T02200172  RH  074%=      5-min Rain = 0
KCL2 111124Z 19006KT 22/17 A3009 RMK A01 T02200173  RH  075%=      5-min Rain = 0
KCL2 111125Z 18005KT 22/17 A3009 RMK A01 T02200173  RH  075%=      5-min Rain = 0
KCL2 111126Z 18006KT 22/17 A301 RMK A01 T02200173  RH  075%=      5-min Rain = 0
KCL2 111127Z 18005KT 22/17 A301 RMK A01 T02190173  RH  075%=      5-min Rain = 0
KCL2 111128Z 19006KT 22/17 A301 RMK A01 T02190173  RH  075%=      5-min Rain = 0
KCL2 111129Z 19006KT 22/17 A301 RMK A01 T02190173  RH  075%=      5-min Rain = 0
KCL2 111130Z 19006KT 22/17 A301 RMK A01 T02190173  RH  075%=      5-min Rain = 0
KCL2 111131Z 19006KT 22/17 A301 RMK A01 T02180173  RH  075%=      5-min Rain = 0
KCL2 111132Z 19006KT 22/17 A301 RMK A01 T02190173  RH  075%=      5-min Rain = 0
KCL2 111133Z 19007KT 22/17 A301 RMK A01 T02180173  RH  075%=      5-min Rain = 0
KCL2 111134Z 19007KT 22/17 A301 RMK A01 T02190173  RH  075%=      5-min Rain = 0
KCL2 111135Z 19007KT 22/17 A301 RMK A01 T02190173  RH  075%=      5-min Rain = 0
KCL2 111136Z 19007KT 22/17 A301 RMK A01 T02190173  RH  075%=      5-min Rain = 0
KCL2 111137Z 19007KT 22/17 A301 RMK A01 T02190173  RH  075%=      5-min Rain = 0
KCL2 111138Z 19007KT 22/17 A301 RMK A01 T02190173  RH  075%=      5-min Rain = 0
KCL2 111139Z 19007KT 22/17 A301 RMK A01 T02190173  RH  075%=      5-min Rain = 0
KCL2 111140Z 19007KT 22/17 A301 RMK A01 T02190173  RH  075%=      5-min Rain = 0
KCL2 111141Z 19007KT 22/17 A301 RMK A01 T02190173  RH  075%=      5-min Rain = 0
KCL2 111142Z 19007KT 22/17 A301 RMK A01 T02190173  RH  075%=      5-min Rain = 0
KCL2 111143Z 19007KT 22/17 A301 RMK A01 T02190173  RH  075%=      5-min Rain = 0
KCL2 111144Z 19006KT 22/17 A301 RMK A01 T02190173  RH  075%=      5-min Rain = 0
KCL2 111145Z 19006KT 22/17 A301 RMK A01 T02200173  RH  075%=      5-min Rain = 0
KCL2 111146Z 19006KT 22/17 A301 RMK A01 T02190173  RH  075%=      5-min Rain = 0
KCL2 111147Z 19006KT 22/17 A301 RMK A01 T02190173  RH  075%=      5-min Rain = 0
KCL2 111148Z 20006KT 22/17 A301 RMK A01 T02190173  RH  075%=      5-min Rain = 0
KCL2 111149Z 19006KT 22/17 A301 RMK A01 T02190173  RH  075%=      5-min Rain = 0
KCL2 111150Z 19006KT 22/17 A301 RMK A01 T02190173  RH  075%=      5-min Rain = 0
KCL2 111151Z 19006KT 22/17 A301 RMK A01 T02190173  RH  075%=      5-min Rain = 0
KCL2 111152Z 19006KT 22/17 A301 RMK A01 T02200173  RH  075%=      5-min Rain = 0
KCL2 111153Z 19005KT 22/17 A301 RMK A01 T02200173  RH  075%=      5-min Rain = 0
KCL2 111154Z 19005KT 22/17 A301 RMK A01 T02200173  RH  075%=      5-min Rain = 0
KCL2 111155Z 19005KT 22/17 A301 RMK A01 T02200173  RH  075%=      5-min Rain = 0
KCL2 111156Z 19006KT 22/17 A301 RMK A01 T02200173  RH  075%=      5-min Rain = 0
KCL2 111157Z 20006KT 22/17 A301 RMK A01 T02200173  RH  074%=      5-min Rain = 0
KCL2 111158Z 19006KT 22/17 A301 RMK A01 T02200173  RH  074%=      5-min Rain = 0
KCL2 111159Z 19006KT 22/17 A301 RMK A01 T02210174  RH  075%=      5-min Rain = 0
KCL2 111200Z 19006KT 22/17 A301 RMK A01 T02200173  RH  075%=      5-min Rain = 0
KCL2 111201Z 19005KT 22/17 A301 RMK A01 T02200174  RH  075%=      5-min Rain = 0
KCL2 111202Z 19006KT 22/17 A301 RMK A01 T02200174  RH  075%=      5-min Rain = 0
KCL2 111203Z 18005KT 22/17 A301 RMK A01 T02200173  RH  075%=      5-min Rain = 0
KCL2 111204Z 18006KT 22/17 A301 RMK A01 T02200173  RH  075%=      5-min Rain = 0
KCL2 111205Z 18006KT 22/17 A301 RMK A01 T02200174  RH  075%=      5-min Rain = 0
KCL2 111206Z 18006KT 22/17 A301 RMK A01 T02210174  RH  075%=      5-min Rain = 0
KCL2 111207Z 18006KT 22/17 A3011 RMK A01 T02210174  RH  075%=      5-min Rain = 0
KCL2 111208Z 18005KT 22/17 A3011 RMK A01 T02210174  RH  075%=      5-min Rain = 0
KCL2 111209Z 18006KT 22/17 A3011 RMK A01 T02210173  RH  074%=      5-min Rain = 0
KCL2 111210Z 18005KT 22/17 A3011 RMK A01 T02220174  RH  074%=      5-min Rain = 0
KCL2 111211Z 18005KT 22/17 A3011 RMK A01 T02220174  RH  074%=      5-min Rain = 0
KCL2 111212Z 18005KT 22/17 A3011 RMK A01 T02220174  RH  074%=      5-min Rain = 0
KCL2 111213Z 17004KT 22/18 A3011 RMK A01 T02220175  RH  075%=      5-min Rain = 0
KCL2 111214Z 18005KT 22/18 A3011 RMK A01 T02210175  RH  075%=      5-min Rain = 0
KCL2 111215Z 18004KT 22/18 A3011 RMK A01 T02210175  RH  075%=      5-min Rain = 0
KCL2 111216Z 18004KT 22/18 A3011 RMK A01 T02200175  RH  075%=      5-min Rain = 0
KCL2 111217Z 18005KT 22/18 A3011 RMK A01 T02200175  RH  076%=      5-min Rain = 0
KCL2 111218Z 18005KT 22/18 A3011 RMK A01 T02200175  RH  076%=      5-min Rain = 0
KCL2 111219Z 18005KT 22/18 A3011 RMK A01 T02190175  RH  076%=      5-min Rain = 0
KCL2 111220Z 18005KT 22/18 A3011 RMK A01 T02190175  RH  076%=      5-min Rain = 0
KCL2 111221Z 19005KT 22/18 A3011 RMK A01 T02190175  RH  076%=      5-min Rain = 0
KCL2 111222Z 19005KT 22/18 A3011 RMK A01 T02190175  RH  076%=      5-min Rain = 0
KCL2 111223Z 19005KT 22/18 A3011 RMK A01 T02180175  RH  077%=      5-min Rain = 0
KCL2 111224Z 19005KT 22/18 A3011 RMK A01 T02180175  RH  077%=      5-min Rain = 0
KCL2 111225Z 18005KT 22/18 A3011 RMK A01 T02180176  RH  077%=      5-min Rain = 0
KCL2 111226Z 18005KT 22/18 A3011 RMK A01 T02180176  RH  077%=      5-min Rain = 0
KCL2 111227Z 18005KT 22/18 A3011 RMK A01 T02180176  RH  077%=      5-min Rain = 0
KCL2 111228Z 18004KT 22/18 A3011 RMK A01 T02180176  RH  077%=      5-min Rain = 0
KCL2 111229Z 18004KT 22/18 A3011 RMK A01 T02180176  RH  077%=      5-min Rain = 0
KCL2 111230Z 18004KT 22/18 A3011 RMK A01 T02180176  RH  077%=      5-min Rain = 0
KCL2 111231Z 18005KT 22/18 A3011 RMK A01 T02180177  RH  077%=      5-min Rain = 0
KCL2 111232Z 18004KT 22/18 A3011 RMK A01 T02180177  RH  077%=      5-min Rain = 0
KCL2 111233Z 18004KT 22/18 A3011 RMK A01 T02180176  RH  077%=      5-min Rain = 0
KCL2 111234Z 17004KT 22/18 A3011 RMK A01 T02180176  RH  077%=      5-min Rain = 0
KCL2 111235Z 18005KT 22/18 A3011 RMK A01 T02180177  RH  077%=      5-min Rain = 0
KCL2 111236Z 18005KT 22/18 A3011 RMK A01 T02180177  RH  078%=      5-min Rain = 0
KCL2 111237Z 18004KT 22/18 A3011 RMK A01 T02180177  RH  078%=      5-min Rain = 0
KCL2 111238Z 18004KT 22/18 A3011 RMK A01 T02180177  RH  078%=      5-min Rain = 0
KCL2 111239Z 18004KT 22/18 A3011 RMK A01 T02180177  RH  077%=      5-min Rain = 0
KCL2 111240Z 18004KT 22/18 A3011 RMK A01 T02180177  RH  078%=      5-min Rain = 0
KCL2 111241Z 18004KT 22/18 A3012 RMK A01 T02180177  RH  078%=      5-min Rain = 0
KCL2 111242Z 18004KT 22/18 A3012 RMK A01 T02180177  RH  078%=      5-min Rain = 0
KCL2 111243Z 18004KT 22/18 A3012 RMK A01 T02180177  RH  077%=      5-min Rain = 0
KCL2 111244Z 18004KT 22/18 A3011 RMK A01 T02180177  RH  078%=      5-min Rain = 0
KCL2 111245Z 18004KT 22/18 A3012 RMK A01 T02180177  RH  078%=      5-min Rain = 0
KCL2 111246Z 19004KT 22/18 A3012 RMK A01 T02180178  RH  078%=      5-min Rain = 0
KCL2 111247Z 19004KT 22/18 A3012 RMK A01 T02180178  RH  078%=      5-min Rain = 0
KCL2 111248Z 19005KT 22/18 A3012 RMK A01 T02180178  RH  078%=      5-min Rain = 0
KCL2 111249Z 19004KT 22/18 A3012 RMK A01 T02180177  RH  078%=      5-min Rain = 0
KCL2 111250Z 19003KT 22/18 A3012 RMK A01 T02180178  RH  078%=      5-min Rain = 0
KCL2 111251Z 19004KT 22/18 A3012 RMK A01 T02180179  RH  078%=      5-min Rain = 0
KCL2 111252Z 19003KT 22/18 A3012 RMK A01 T02190179  RH  078%=      5-min Rain = 0
KCL2 111253Z 19003KT 22/18 A3012 RMK A01 T02190179  RH  078%=      5-min Rain = 0
KCL2 111254Z 19003KT 22/18 A3012 RMK A01 T02190180  RH  078%=      5-min Rain = 0
KCL2 111255Z 19003KT 22/18 A3012 RMK A01 T02180179  RH  078%=      5-min Rain = 0
KCL2 111256Z 18003KT 22/18 A3012 RMK A01 T02190181  RH  079%=      5-min Rain = 0
KCL2 111257Z 18003KT 22/18 A3012 RMK A01 T02200180  RH  078%=      5-min Rain = 0
KCL2 111258Z 18003KT 22/18 A3012 RMK A01 T02200181  RH  078%=      5-min Rain = 0
KCL2 111259Z 18003KT 22/18 A3012 RMK A01 T02210181  RH  078%=      5-min Rain = 0
KCL2 111300Z 18003KT 22/18 A3012 RMK A01 T02220181  RH  078%=      5-min Rain = 0
KCL2 111301Z 18003KT 22/18 A3012 RMK A01 T02220182  RH  078%=      5-min Rain = 0
KCL2 111302Z 18003KT 22/18 A3012 RMK A01 T02230182  RH  077%=      5-min Rain = 0
KCL2 111303Z 18003KT 22/18 A3012 RMK A01 T02230182  RH  078%=      5-min Rain = 0
KCL2 111304Z 18003KT 22/18 A3012 RMK A01 T02240182  RH  077%=      5-min Rain = 0
KCL2 111305Z 18004KT 22/18 A3012 RMK A01 T02240182  RH  077%=      5-min Rain = 0
KCL2 111306Z 18004KT 23/18 A3012 RMK A01 T02250184  RH  077%=      5-min Rain = 0
KCL2 111307Z 18004KT 23/18 A3012 RMK A01 T02260184  RH  077%=      5-min Rain = 0
KCL2 111308Z 18003KT 23/18 A3012 RMK A01 T02270184  RH  077%=      5-min Rain = 0
KCL2 111309Z 18004KT 23/18 A3012 RMK A01 T02280184  RH  076%=      5-min Rain = 0
KCL2 111310Z 17003KT 23/18 A3012 RMK A01 T02290183  RH  075%=      5-min Rain = 0
KCL2 111311Z 18003KT 23/18 A3012 RMK A01 T02300184  RH  075%=      5-min Rain = 0
KCL2 111312Z 18003KT 23/18 A3012 RMK A01 T02320184  RH  074%=      5-min Rain = 0
KCL2 111313Z 18003KT 23/19 A3012 RMK A01 T02330186  RH  075%=      5-min Rain = 0
KCL2 111314Z 18004KT 23/19 A3012 RMK A01 T02340186  RH  074%=      5-min Rain = 0
KCL2 111315Z 19003KT 24/19 A3012 RMK A01 T02360186  RH  074%=      5-min Rain = 0
KCL2 111316Z 19004KT 24/19 A3012 RMK A01 T02360186  RH  073%=      5-min Rain = 0
KCL2 111317Z 20005KT 24/19 A3012 RMK A01 T02380187  RH  073%=      5-min Rain = 0
KCL2 111318Z 20005KT 24/19 A3013 RMK A01 T02400188  RH  073%=      5-min Rain = 0
KCL2 111319Z 21004KT 24/19 A3013 RMK A01 T02430189  RH  072%=      5-min Rain = 0
KCL2 111320Z 21006KT 25/19 A3013 RMK A01 T02450190  RH  071%=      5-min Rain = 0
KCL2 111321Z 21007KT 25/19 A3013 RMK A01 T02470188  RH  070%=      5-min Rain = 0
KCL2 111322Z 20006KT 25/19 A3013 RMK A01 T02490187  RH  069%=      5-min Rain = 0
KCL2 111323Z 21007KT 25/19 A3013 RMK A01 T02500189  RH  069%=      5-min Rain = 0
KCL2 111324Z 21007KT 25/19 A3013 RMK A01 T02510189  RH  068%=      5-min Rain = 0
KCL2 111325Z 21006KT 25/19 A3013 RMK A01 T02520188  RH  067%=      5-min Rain = 0
KCL2 111326Z 21006KT 25/19 A3013 RMK A01 T02530189  RH  068%=      5-min Rain = 0
KCL2 111327Z 21008KT 25/19 A3013 RMK A01 T02530188  RH  067%=      5-min Rain = 0
KCL2 111328Z 21006KT 25/19 A3013 RMK A01 T02530187  RH  067%=      5-min Rain = 0
KCL2 111329Z 21005KT 25/19 A3013 RMK A01 T02540189  RH  067%=      5-min Rain = 0
KCL2 111330Z 20005KT 26/19 A3013 RMK A01 T02550192  RH  068%=      5-min Rain = 0
KCL2 111331Z 21007KT 26/19 A3013 RMK A01 T02570192  RH  067%=      5-min Rain = 0
KCL2 111332Z 22007KT 26/19 A3013 RMK A01 T02580193  RH  067%=      5-min Rain = 0
KCL2 111333Z 21009KT 26/19 A3013 RMK A01 T02590190  RH  066%=      5-min Rain = 0
KCL2 111334Z 22010KT 26/19 A3013 RMK A01 T02600190  RH  065%=      5-min Rain = 0
KCL2 111335Z 21009KT 26/19 A3013 RMK A01 T02600191  RH  066%=      5-min Rain = 0
KCL2 111336Z 21010KT 26/19 A3013 RMK A01 T02600191  RH  066%=      5-min Rain = 0
KCL2 111337Z 22008KT 26/19 A3013 RMK A01 T02610192  RH  066%=      5-min Rain = 0
KCL2 111338Z 21008KT 26/19 A3013 RMK A01 T02610192  RH  066%=      5-min Rain = 0
KCL2 111339Z 21010KT 26/19 A3013 RMK A01 T02630193  RH  065%=      5-min Rain = 0
KCL2 111340Z 22011KT 26/19 A3013 RMK A01 T02630191  RH  065%=      5-min Rain = 0
KCL2 111341Z 22010KT 26/19 A3013 RMK A01 T02630192  RH  065%=      5-min Rain = 0
KCL2 111342Z 22008KT 26/19 A3013 RMK A01 T02630192  RH  065%=      5-min Rain = 0
KCL2 111343Z 21008KT 26/20 A3013 RMK A01 T02640195  RH  065%=      5-min Rain = 0
KCL2 111344Z 21009KT 27/19 A3013 RMK A01 T02650194  RH  065%=      5-min Rain = 0
KCL2 111345Z 21008KT 27/20 A3013 RMK A01 T02660195  RH  065%=      5-min Rain = 0
KCL2 111346Z 21008KT 27/20 A3013 RMK A01 T02670195  RH  065%=      5-min Rain = 0
KCL2 111347Z 22010KT 27/19 A3013 RMK A01 T02670193  RH  064%=      5-min Rain = 0
KCL2 111348Z 22011KT 27/19 A3013 RMK A01 T02660193  RH  064%=      5-min Rain = 0
KCL2 111349Z 21010KT 27/19 A3013 RMK A01 T02660193  RH  064%=      5-min Rain = 0
KCL2 111350Z 22012KT 27/19 A3013 RMK A01 T02660194  RH  065%=      5-min Rain = 0
KCL2 111351Z 22012KT 27/19 A3013 RMK A01 T02660194  RH  064%=      5-min Rain = 0
KCL2 111352Z 22012KT 27/19 A3013 RMK A01 T02670194  RH  064%=      5-min Rain = 0
KCL2 111353Z 21009KT 27/19 A3013 RMK A01 T02660193  RH  064%=      5-min Rain = 0
KCL2 111354Z 22010KT 27/19 A3013 RMK A01 T02660194  RH  065%=      5-min Rain = 0
KCL2 111355Z 21011KT 27/20 A3013 RMK A01 T02670195  RH  064%=      5-min Rain = 0
KCL2 111356Z 21008KT 27/20 A3013 RMK A01 T02680195  RH  064%=      5-min Rain = 0
KCL2 111357Z 22009KT 27/20 A3013 RMK A01 T02690196  RH  064%=      5-min Rain = 0
KCL2 111358Z 22013KT 27/20 A3013 RMK A01 T02690195  RH  064%=      5-min Rain = 0
KCL2 111359Z 22012KT 27/20 A3013 RMK A01 T02690196  RH  064%=      5-min Rain = 0
KCL2 111400Z 22012KT 27/20 A3013 RMK A01 T02690195  RH  064%=      5-min Rain = 0
KCL2 111401Z 23010KT 27/20 A3013 RMK A01 T02690196  RH  064%=      5-min Rain = 0
KCL2 111402Z 22010KT 27/20 A3013 RMK A01 T02700196  RH  064%=      5-min Rain = 0
KCL2 111403Z 22011KT 27/20 A3013 RMK A01 T02700195  RH  064%=      5-min Rain = 0
KCL2 111404Z 21008KT 27/20 A3014 RMK A01 T02700196  RH  064%=      5-min Rain = 0
KCL2 111405Z 21008KT 27/20 A3014 RMK A01 T02700198  RH  065%=      5-min Rain = 0
KCL2 111406Z 21010KT 27/20 A3014 RMK A01 T02710198  RH  064%=      5-min Rain = 0
KCL2 111407Z 21009KT 27/20 A3014 RMK A01 T02730199  RH  064%=      5-min Rain = 0
KCL2 111408Z 22012KT 27/20 A3014 RMK A01 T02740199  RH  064%=      5-min Rain = 0
KCL2 111409Z 22012KT 27/20 A3014 RMK A01 T02730198  RH  063%=      5-min Rain = 0
KCL2 111410Z 23011KT 27/20 A3014 RMK A01 T02720198  RH  064%=      5-min Rain = 0
KCL2 111411Z 22010KT 27/20 A3014 RMK A01 T02720198  RH  064%=      5-min Rain = 0
KCL2 111412Z 22009KT 27/20 A3014 RMK A01 T02720198  RH  064%=      5-min Rain = 0
KCL2 111413Z 23008KT 27/20 A3014 RMK A01 T02720199  RH  064%=      5-min Rain = 0
KCL2 111414Z 22008KT 27/20 A3014 RMK A01 T02740199  RH  064%=      5-min Rain = 0
KCL2 111415Z 20008KT 28/20 A3014 RMK A01 T02750200  RH  064%=      5-min Rain = 0
KCL2 111416Z 21009KT 28/20 A3014 RMK A01 T02760199  RH  063%=      5-min Rain = 0
KCL2 111417Z 21010KT 28/20 A3014 RMK A01 T02760198  RH  062%=      5-min Rain = 0
KCL2 111418Z 22010KT 28/20 A3014 RMK A01 T02760199  RH  063%=      5-min Rain = 0
KCL2 111419Z 21009KT 28/20 A3014 RMK A01 T02770199  RH  062%=      5-min Rain = 0
KCL2 111420Z 22007KT 28/20 A3014 RMK A01 T02780200  RH  062%=      5-min Rain = 0
KCL2 111421Z 21009KT 28/20 A3014 RMK A01 T02790200  RH  062%=      5-min Rain = 0
KCL2 111422Z 21007KT 28/20 A3014 RMK A01 T02790201  RH  062%=      5-min Rain = 0
KCL2 111423Z 21008KT 28/20 A3014 RMK A01 T02800200  RH  062%=      5-min Rain = 0
KCL2 111424Z 21008KT 28/20 A3014 RMK A01 T02800200  RH  062%=      5-min Rain = 0
KCL2 111425Z 21008KT 28/20 A3014 RMK A01 T02810201  RH  062%=      5-min Rain = 0
KCL2 111426Z 21010KT 28/20 A3014 RMK A01 T02820202  RH  062%=      5-min Rain = 0
KCL2 111427Z 21010KT 28/20 A3014 RMK A01 T02820201  RH  062%=      5-min Rain = 0
KCL2 111428Z 21011KT 28/20 A3014 RMK A01 T02820202  RH  062%=      5-min Rain = 0
KCL2 111429Z 23010KT 28/20 A3014 RMK A01 T02810201  RH  062%=      5-min Rain = 0
KCL2 111430Z 23011KT 28/20 A3014 RMK A01 T02820201  RH  061%=      5-min Rain = 0
KCL2 111431Z 22012KT 28/20 A3014 RMK A01 T02810200  RH  061%=      5-min Rain = 0
KCL2 111432Z 22010KT 28/20 A3014 RMK A01 T02810200  RH  062%=      5-min Rain = 0
KCL2 111433Z 22012KT 28/20 A3014 RMK A01 T02810201  RH  062%=      5-min Rain = 0
KCL2 111434Z 23010KT 28/20 A3014 RMK A01 T02810201  RH  062%=      5-min Rain = 0
KCL2 111435Z 22011KT 28/20 A3014 RMK A01 T02820201  RH  061%=      5-min Rain = 0
KCL2 111436Z 22012KT 28/20 A3014 RMK A01 T02830202  RH  062%=      5-min Rain = 0
KCL2 111437Z 21013KT 28/20 A3014 RMK A01 T02830200  RH  061%=      5-min Rain = 0
KCL2 111438Z 21008KT 28/20 A3014 RMK A01 T02820201  RH  061%=      5-min Rain = 0
KCL2 111439Z 21011KT 28/20 A3014 RMK A01 T02830202  RH  061%=      5-min Rain = 0
KCL2 111440Z 22012KT 28/20 A3014 RMK A01 T02840201  RH  061%=      5-min Rain = 0
KCL2 111441Z 22010KT 28/20 A3014 RMK A01 T02840203  RH  061%=      5-min Rain = 0
KCL2 111442Z 22010KT 29/20 A3014 RMK A01 T02860202  RH  061%=      5-min Rain = 0
KCL2 111443Z 22011KT 29/20 A3014 RMK A01 T02870201  RH  060%=      5-min Rain = 0
KCL2 111444Z 22012KT 29/20 A3014 RMK A01 T02850200  RH  060%=      5-min Rain = 0
KCL2 111445Z 23010KT 28/20 A3014 RMK A01 T02840201  RH  061%=      5-min Rain = 0
KCL2 111446Z 22009KT 29/20 A3014 RMK A01 T02850203  RH  061%=      5-min Rain = 0
KCL2 111447Z 22010KT 29/20 A3014 RMK A01 T02870202  RH  060%=      5-min Rain = 0
KCL2 111448Z 24009KT 29/20 A3014 RMK A01 T02870202  RH  060%=      5-min Rain = 0
KCL2 111449Z 23010KT 29/20 A3014 RMK A01 T02880202  RH  060%=      5-min Rain = 0
KCL2 111450Z 23010KT 29/20 A3014 RMK A01 T02870201  RH  060%=      5-min Rain = 0
KCL2 111451Z 22009KT 29/20 A3014 RMK A01 T02850201  RH  060%=      5-min Rain = 0
KCL2 111452Z 21008KT 29/20 A3014 RMK A01 T02850202  RH  061%=      5-min Rain = 0
KCL2 111453Z 22008KT 29/20 A3014 RMK A01 T02870202  RH  060%=      5-min Rain = 0
KCL2 111454Z 22008KT 29/20 A3014 RMK A01 T02880201  RH  059%=      5-min Rain = 0
KCL2 111455Z 20009KT 29/20 A3014 RMK A01 T02900204  RH  060%=      5-min Rain = 0
KCL2 111456Z 21009KT 29/20 A3014 RMK A01 T02910202  RH  059%=      5-min Rain = 0
KCL2 111457Z 22010KT 29/20 A3014 RMK A01 T02910202  RH  059%=      5-min Rain = 0
KCL2 111458Z 21010KT 29/20 A3014 RMK A01 T02910200  RH  058%=      5-min Rain = 0
KCL2 111459Z 21010KT 29/20 A3014 RMK A01 T02880201  RH  059%=      5-min Rain = 0
KCL2 111500Z 21010KT 29/20 A3014 RMK A01 T02880200  RH  059%=      5-min Rain = 0
KCL2 111501Z 21010G15KT 29/20 A3014 RMK A01 T02870199  RH  059%=      5-min Rain = 0
KCL2 111502Z 21010KT 29/20 A3014 RMK A01 T02870200  RH  059%=      5-min Rain = 0
KCL2 111503Z 21009KT 29/20 A3014 RMK A01 T02890201  RH  059%=      5-min Rain = 0
KCL2 111504Z 20010KT 29/20 A3014 RMK A01 T02910201  RH  058%=      5-min Rain = 0
KCL2 111505Z 21011KT 29/20 A3014 RMK A01 T02920200  RH  058%=      5-min Rain = 0
KCL2 111506Z 21009KT 29/20 A3014 RMK A01 T02910200  RH  058%=      5-min Rain = 0
KCL2 111507Z 21009KT 29/20 A3014 RMK A01 T02910201  RH  058%=      5-min Rain = 0
KCL2 111508Z 21012KT 29/20 A3014 RMK A01 T02910198  RH  057%=      5-min Rain = 0
KCL2 111509Z 21011KT 29/20 A3014 RMK A01 T02900198  RH  058%=      5-min Rain = 0
KCL2 111510Z 21011KT 29/20 A3014 RMK A01 T02890198  RH  058%=      5-min Rain = 0
KCL2 111511Z 22011KT 29/20 A3014 RMK A01 T02900197  RH  057%=      5-min Rain = 0
KCL2 111512Z 22010KT 29/20 A3014 RMK A01 T02900197  RH  058%=      5-min Rain = 0
KCL2 111513Z 22009KT 29/20 A3014 RMK A01 T02890198  RH  058%=      5-min Rain = 0
KCL2 111514Z 21008KT 29/20 A3014 RMK A01 T02900200  RH  058%=      5-min Rain = 0
KCL2 111515Z 20009KT 29/20 A3014 RMK A01 T02910200  RH  058%=      5-min Rain = 0
KCL2 111516Z 19010KT 29/20 A3014 RMK A01 T02910200  RH  058%=      5-min Rain = 0
KCL2 111517Z 19012KT 29/20 A3014 RMK A01 T02910200  RH  058%=      5-min Rain = 0
KCL2 111518Z 21011KT 29/20 A3014 RMK A01 T02920199  RH  057%=      5-min Rain = 0
KCL2 111519Z 21010KT 29/20 A3014 RMK A01 T02920198  RH  057%=      5-min Rain = 0
KCL2 111520Z 21008KT 29/20 A3014 RMK A01 T02920199  RH  057%=      5-min Rain = 0
KCL2 111521Z 23010KT 29/20 A3014 RMK A01 T02940200  RH  057%=      5-min Rain = 0
KCL2 111522Z 23008KT 30/20 A3014 RMK A01 T02960201  RH  057%=      5-min Rain = 0
KCL2 111523Z 22008KT 30/20 A3014 RMK A01 T02960201  RH  057%=      5-min Rain = 0
KCL2 111524Z 21009KT 30/20 A3014 RMK A01 T02970200  RH  056%=      5-min Rain = 0
KCL2 111525Z 20009KT 30/20 A3014 RMK A01 T02970203  RH  057%=      5-min Rain = 0
KCL2 111526Z 20010KT 30/20 A3013 RMK A01 T02980201  RH  056%=      5-min Rain = 0
KCL2 111527Z 19011KT 30/20 A3013 RMK A01 T02980199  RH  055%=      5-min Rain = 0
KCL2 111528Z 19010KT 30/20 A3013 RMK A01 T02970199  RH  056%=      5-min Rain = 0
KCL2 111529Z 21009KT 30/20 A3013 RMK A01 T02970200  RH  056%=      5-min Rain = 0
KCL2 111530Z 23008KT 30/20 A3013 RMK A01 T02980203  RH  057%=      5-min Rain = 0
KCL2 111531Z 21008KT 30/20 A3013 RMK A01 T03010201  RH  055%=      5-min Rain = 0
KCL2 111532Z 22009KT 30/20 A3013 RMK A01 T03010200  RH  055%=      5-min Rain = 0
KCL2 111533Z 21009KT 30/20 A3013 RMK A01 T03000201  RH  055%=      5-min Rain = 0
KCL2 111534Z 21010KT 30/20 A3013 RMK A01 T03000201  RH  055%=      5-min Rain = 0
KCL2 111535Z 21010KT 30/20 A3013 RMK A01 T02990200  RH  055%=      5-min Rain = 0
KCL2 111536Z 22007KT 30/20 A3013 RMK A01 T02970199  RH  056%=      5-min Rain = 0
KCL2 111537Z 20010KT 30/20 A3013 RMK A01 T02970199  RH  056%=      5-min Rain = 0
KCL2 111538Z 20010KT 30/20 A3013 RMK A01 T02970198  RH  055%=      5-min Rain = 0
KCL2 111539Z 22009KT 30/20 A3013 RMK A01 T02960197  RH  055%=      5-min Rain = 0
KCL2 111540Z 23011KT 30/20 A3013 RMK A01 T02970198  RH  056%=      5-min Rain = 0
KCL2 111541Z 21009KT 30/20 A3013 RMK A01 T02990200  RH  055%=      5-min Rain = 0
KCL2 111542Z 21009KT 30/20 A3013 RMK A01 T03000197  RH  054%=      5-min Rain = 0
KCL2 111543Z 21009KT 30/20 A3013 RMK A01 T03010198  RH  054%=      5-min Rain = 0
KCL2 111544Z 20007KT 30/20 A3013 RMK A01 T03020197  RH  054%=      5-min Rain = 0
KCL2 111545Z 19006KT 30/20 A3013 RMK A01 T03020201  RH  055%=      5-min Rain = 0
KCL2 111546Z 22006KT 30/20 A3013 RMK A01 T03030203  RH  055%=      5-min Rain = 0
KCL2 111547Z 23005KT 31/20 A3013 RMK A01 T03050202  RH  054%=      5-min Rain = 0
KCL2 111548Z 21008KT 31/20 A3013 RMK A01 T03070203  RH  054%=      5-min Rain = 0
KCL2 111549Z 20009KT 31/20 A3013 RMK A01 T03080198  RH  052%=      5-min Rain = 0
KCL2 111550Z 21008KT 30/20 A3013 RMK A01 T03040198  RH  053%=      5-min Rain = 0
KCL2 111551Z 23008KT 30/20 A3013 RMK A01 T03040197  RH  053%=      5-min Rain = 0
KCL2 111552Z 21006KT 31/20 A3013 RMK A01 T03050199  RH  053%=      5-min Rain = 0
KCL2 111553Z 21010KT 31/20 A3013 RMK A01 T03060200  RH  053%=      5-min Rain = 0
KCL2 111554Z 20009KT 31/20 A3013 RMK A01 T03050202  RH  054%=      5-min Rain = 0
KCL2 111555Z 22007KT 31/20 A3013 RMK A01 T03060200  RH  053%=      5-min Rain = 0
KCL2 111556Z 20008KT 31/20 A3013 RMK A01 T03070200  RH  053%=      5-min Rain = 0
KCL2 111557Z 20010KT 31/20 A3013 RMK A01 T03070199  RH  052%=      5-min Rain = 0
KCL2 111558Z 19007KT 31/20 A3013 RMK A01 T03070195  RH  051%=      5-min Rain = 0
KCL2 111559Z 19007KT 31/20 A3013 RMK A01 T03050196  RH  052%=      5-min Rain = 0
KCL2 111600Z 21011KT 31/20 A3013 RMK A01 T03050197  RH  052%=      5-min Rain = 0
KCL2 111601Z 20010KT 31/19 A3013 RMK A01 T03060194  RH  051%=      5-min Rain = 0
KCL2 111602Z 21008KT 31/20 A3013 RMK A01 T03050196  RH  052%=      5-min Rain = 0
KCL2 111603Z 19007KT 31/20 A3013 RMK A01 T03050198  RH  053%=      5-min Rain = 0
KCL2 111604Z 19008KT 31/20 A3013 RMK A01 T03060196  RH  052%=      5-min Rain = 0
KCL2 111605Z 20009KT 31/20 A3013 RMK A01 T03070197  RH  052%=      5-min Rain = 0
KCL2 111606Z 19010KT 31/20 A3013 RMK A01 T03070196  RH  051%=      5-min Rain = 0
KCL2 111607Z 22010KT 31/20 A3013 RMK A01 T03070197  RH  052%=      5-min Rain = 0
KCL2 111608Z 21008KT 31/20 A3013 RMK A01 T03070195  RH  051%=      5-min Rain = 0
KCL2 111609Z 22006KT 31/20 A3013 RMK A01 T03050195  RH  052%=      5-min Rain = 0
KCL2 111610Z 22007KT 31/19 A3013 RMK A01 T03050193  RH  051%=      5-min Rain = 0
KCL2 111611Z 22007KT 31/19 A3013 RMK A01 T03070189  RH  049%=      5-min Rain = 0
KCL2 111612Z 22007KT 31/20 A3013 RMK A01 T03070199  RH  052%=      5-min Rain = 0
KCL2 111613Z 22008KT 31/20 A3013 RMK A01 T03110200  RH  051%=      5-min Rain = 0
KCL2 111614Z 22007KT 31/20 A3013 RMK A01 T03130196  RH  050%=      5-min Rain = 0
KCL2 111615Z 20007KT 31/20 A3013 RMK A01 T03120197  RH  051%=      5-min Rain = 0
KCL2 111616Z 21008KT 31/19 A3013 RMK A01 T03110193  RH  049%=      5-min Rain = 0
KCL2 111617Z 22004KT 31/19 A3013 RMK A01 T03090188  RH  048%=      5-min Rain = 0
KCL2 111618Z 24004KT 31/19 A3013 RMK A01 T03080187  RH  049%=      5-min Rain = 0
KCL2 111619Z 23006KT 31/19 A3013 RMK A01 T03080193  RH  050%=      5-min Rain = 0
KCL2 111620Z 22006KT 31/19 A3013 RMK A01 T03100192  RH  050%=      5-min Rain = 0
KCL2 111621Z 18007KT 31/19 A3013 RMK A01 T03110191  RH  049%=      5-min Rain = 0
KCL2 111622Z 17007KT 31/19 A3013 RMK A01 T03110190  RH  049%=      5-min Rain = 0
KCL2 111623Z 16005KT 31/19 A3013 RMK A01 T03120188  RH  048%=      5-min Rain = 0
KCL2 111624Z 19007KT 31/19 A3013 RMK A01 T03110189  RH  048%=      5-min Rain = 0
KCL2 111625Z 19008KT 31/19 A3013 RMK A01 T03100193  RH  050%=      5-min Rain = 0
KCL2 111626Z 20006KT 31/19 A3013 RMK A01 T03110191  RH  049%=      5-min Rain = 0
KCL2 111627Z 19003KT 31/19 A3013 RMK A01 T03110188  RH  048%=      5-min Rain = 0
KCL2 111628Z 14002KT 31/19 A3012 RMK A01 T03100188  RH  048%=      5-min Rain = 0
KCL2 111629Z 19006KT 31/19 A3012 RMK A01 T03100193  RH  050%=      5-min Rain = 0
KCL2 111630Z 17007KT 31/19 A3012 RMK A01 T03130192  RH  048%=      5-min Rain = 0
KCL2 111631Z 18006KT 32/19 A3012 RMK A01 T03160193  RH  048%=      5-min Rain = 0
KCL2 111632Z 18007KT 32/19 A3012 RMK A01 T03170191  RH  047%=      5-min Rain = 0
KCL2 111633Z 22008KT 32/20 A3012 RMK A01 T03160195  RH  048%=      5-min Rain = 0
KCL2 111634Z 23007KT 32/19 A3012 RMK A01 T03180192  RH  047%=      5-min Rain = 0
KCL2 111635Z 24005KT 32/19 A3012 RMK A01 T03180190  RH  047%=      5-min Rain = 0
KCL2 111636Z 24005KT 32/19 A3012 RMK A01 T03150189  RH  047%=      5-min Rain = 0
KCL2 111637Z 24004KT 31/19 A3012 RMK A01 T03130192  RH  049%=      5-min Rain = 0
KCL2 111638Z 27001KT 31/19 A3012 RMK A01 T03130189  RH  048%=      5-min Rain = 0
KCL2 111639Z 25003KT 31/19 A3012 RMK A01 T03140190  RH  048%=      5-min Rain = 0
KCL2 111640Z 26002KT 31/19 A3012 RMK A01 T03130189  RH  048%=      5-min Rain = 0
KCL2 111641Z 22004KT 31/20 A3012 RMK A01 T03130195  RH  050%=      5-min Rain = 0
KCL2 111642Z 19006KT 32/20 A3012 RMK A01 T03180195  RH  048%=      5-min Rain = 0
KCL2 111643Z 21006KT 32/19 A3012 RMK A01 T03210190  RH  046%=      5-min Rain = 0
KCL2 111644Z 21006KT 32/19 A3012 RMK A01 T03200191  RH  046%=      5-min Rain = 0
KCL2 111645Z 19007KT 32/19 A3012 RMK A01 T03210188  RH  045%=      5-min Rain = 0
KCL2 111646Z 17006KT 32/19 A3012 RMK A01 T03180187  RH  046%=      5-min Rain = 0
KCL2 111647Z 20004KT 32/19 A3012 RMK A01 T03160185  RH  046%=      5-min Rain = 0
KCL2 111648Z 24004KT 32/19 A3012 RMK A01 T03150193  RH  048%=      5-min Rain = 0
KCL2 111649Z 25008KT 32/19 A3012 RMK A01 T03180193  RH  048%=      5-min Rain = 0
KCL2 111650Z 21007KT 32/19 A3012 RMK A01 T03200189  RH  046%=      5-min Rain = 0
KCL2 111651Z 22006KT 32/19 A3012 RMK A01 T03200190  RH  046%=      5-min Rain = 0
KCL2 111652Z 21005KT 32/19 A3012 RMK A01 T03200189  RH  046%=      5-min Rain = 0
KCL2 111653Z 23006KT 32/19 A3012 RMK A01 T03200188  RH  045%=      5-min Rain = 0
KCL2 111654Z 17004KT 32/19 A3012 RMK A01 T03230185  RH  044%=      5-min Rain = 0
KCL2 111655Z 16006KT 32/18 A3012 RMK A01 T03240181  RH  043%=      5-min Rain = 0
KCL2 111656Z 14005KT 32/18 A3012 RMK A01 T03240184  RH  044%=      5-min Rain = 0
KCL2 111657Z 14004KT 32/18 A3012 RMK A01 T03240182  RH  043%=      5-min Rain = 0
KCL2 111658Z 16006KT 32/18 A3012 RMK A01 T03240184  RH  043%=      5-min Rain = 0
KCL2 111659Z 18007KT 32/18 A3012 RMK A01 T03240184  RH  043%=      5-min Rain = 0
KCL2 111700Z 18006KT 32/18 A3012 RMK A01 T03230183  RH  043%=      5-min Rain = 0
KCL2 111701Z 19006KT 32/18 A3012 RMK A01 T03220179  RH  042%=      5-min Rain = 0
KCL2 111702Z 17004KT 32/18 A3012 RMK A01 T03240176  RH  041%=      5-min Rain = 0
KCL2 111703Z 18004KT 33/18 A3012 RMK A01 T03250177  RH  041%=      5-min Rain = 0
KCL2 111704Z 21002KT 33/17 A3012 RMK A01 T03250171  RH  040%=      5-min Rain = 0
KCL2 111705Z 24003KT 32/17 A3012 RMK A01 T03240173  RH  041%=      5-min Rain = 0
KCL2 111706Z 18007KT 32/18 A3012 RMK A01 T03240176  RH  041%=      5-min Rain = 0
KCL2 111707Z 19008KT 33/18 A3012 RMK A01 T03250177  RH  041%=      5-min Rain = 0
KCL2 111708Z 18007KT 33/18 A3012 RMK A01 T03250176  RH  041%=      5-min Rain = 0
KCL2 111709Z 18009KT 33/18 A3012 RMK A01 T03280177  RH  041%=      5-min Rain = 0
KCL2 111710Z 16008KT 33/17 A3012 RMK A01 T03290165  RH  038%=      5-min Rain = 0
KCL2 111711Z 16008KT 33/17 A3012 RMK A01 T03260174  RH  040%=      5-min Rain = 0
KCL2 111712Z 16009KT 33/18 A3012 RMK A01 T03250178  RH  042%=      5-min Rain = 0
KCL2 111713Z 16008KT 33/18 A3012 RMK A01 T03250180  RH  042%=      5-min Rain = 0
KCL2 111714Z 17006KT 33/18 A3012 RMK A01 T03280182  RH  042%=      5-min Rain = 0
KCL2 111715Z 17005KT 33/18 A3012 RMK A01 T03310179  RH  041%=      5-min Rain = 0
KCL2 111716Z 16006KT 33/18 A3012 RMK A01 T03300178  RH  040%=      5-min Rain = 0
KCL2 111717Z 11002KT 33/18 A3012 RMK A01 T03280176  RH  040%=      5-min Rain = 0
KCL2 111718Z 09003KT 33/18 A3012 RMK A01 T03260178  RH  042%=      5-min Rain = 0
KCL2 111719Z 10002KT 33/18 A3012 RMK A01 T03250182  RH  043%=      5-min Rain = 0
KCL2 111720Z 17001KT 33/18 A3012 RMK A01 T03250180  RH  042%=      5-min Rain = 0
KCL2 111721Z 12002KT 33/18 A3012 RMK A01 T03270183  RH  043%=      5-min Rain = 0
KCL2 111722Z 15006KT 33/18 A3012 RMK A01 T03280184  RH  043%=      5-min Rain = 0
KCL2 111723Z 14004KT 33/18 A3012 RMK A01 T03280179  RH  041%=      5-min Rain = 0
KCL2 111724Z 17004KT 33/18 A3012 RMK A01 T03260180  RH  042%=      5-min Rain = 0
KCL2 111725Z 18008KT 33/18 A3012 RMK A01 T03250182  RH  043%=      5-min Rain = 0
KCL2 111726Z 17009KT 33/18 A3012 RMK A01 T03260184  RH  043%=      5-min Rain = 0
KCL2 111727Z 17008KT 33/18 A3012 RMK A01 T03280182  RH  042%=      5-min Rain = 0
KCL2 111728Z 17009KT 33/18 A3012 RMK A01 T03290181  RH  042%=      5-min Rain = 0
KCL2 111729Z 16007KT 33/18 A3012 RMK A01 T03270178  RH  041%=      5-min Rain = 0
KCL2 111730Z 18004KT 33/18 A3012 RMK A01 T03250180  RH  042%=      5-min Rain = 0
KCL2 111731Z 19002KT 33/18 A3012 RMK A01 T03250179  RH  042%=      5-min Rain = 0
KCL2 111732Z 21002KT 33/18 A3012 RMK A01 T03250177  RH  042%=      5-min Rain = 0
KCL2 111733Z 24001KT 32/18 A3012 RMK A01 T03240177  RH  041%=      5-min Rain = 0
KCL2 111734Z 13003KT 33/18 A3012 RMK A01 T03250178  RH  042%=      5-min Rain = 0
KCL2 111735Z 15003KT 33/18 A3012 RMK A01 T03250176  RH  041%=      5-min Rain = 0
KCL2 111736Z 17007KT 33/18 A3011 RMK A01 T03260181  RH  042%=      5-min Rain = 0
KCL2 111737Z 16004KT 33/18 A3011 RMK A01 T03280178  RH  041%=      5-min Rain = 0
KCL2 111738Z 18006G15KT 33/18 A3012 RMK A01 T03290182  RH  042%=      5-min Rain = 0
KCL2 111739Z 18010KT 33/18 A3011 RMK A01 T03320175  RH  039%=      5-min Rain = 0
KCL2 111740Z 18013KT 33/17 A3011 RMK A01 T03320173  RH  039%=      5-min Rain = 0
KCL2 111741Z 18008G13KT 33/17 A3011 RMK A01 T03330170  RH  038%=      5-min Rain = 0
KCL2 111742Z 16008KT 33/17 A3012 RMK A01 T03340174  RH  039%=      5-min Rain = 0
KCL2 111743Z 18007KT 34/17 A3012 RMK A01 T03350169  RH  037%=      5-min Rain = 0
KCL2 111744Z 19006KT 33/17 A3011 RMK A01 T03330173  RH  038%=      5-min Rain = 0
KCL2 111745Z 16004KT 33/17 A3011 RMK A01 T03310172  RH  039%=      5-min Rain = 0
KCL2 111746Z 14005KT 33/17 A3011 RMK A01 T03300173  RH  039%=      5-min Rain = 0
KCL2 111747Z 15008KT 33/17 A3011 RMK A01 T03310173  RH  039%=      5-min Rain = 0
KCL2 111748Z 15008KT 33/18 A3011 RMK A01 T03320176  RH  039%=      5-min Rain = 0
KCL2 111749Z 15005KT 33/17 A3011 RMK A01 T03320174  RH  039%=      5-min Rain = 0
KCL2 111750Z 14006KT 33/17 A3011 RMK A01 T03310172  RH  039%=      5-min Rain = 0
KCL2 111751Z 20006KT 33/18 A3011 RMK A01 T03290176  RH  040%=      5-min Rain = 0
KCL2 111752Z 21007KT 33/18 A3011 RMK A01 T03290176  RH  040%=      5-min Rain = 0
KCL2 111753Z 21004KT 33/18 A3011 RMK A01 T03270178  RH  041%=      5-min Rain = 0
KCL2 111754Z 22004KT 33/18 A3011 RMK A01 T03280176  RH  040%=      5-min Rain = 0
KCL2 111755Z 22010KT 33/18 A3011 RMK A01 T03280178  RH  041%=      5-min Rain = 0
KCL2 111756Z 18011KT 33/18 A3011 RMK A01 T03330180  RH  040%=      5-min Rain = 0
KCL2 111757Z 18010KT 34/17 A3011 RMK A01 T03360169  RH  037%=      5-min Rain = 0
KCL2 111758Z 18010KT 34/17 A3011 RMK A01 T03350174  RH  038%=      5-min Rain = 0
KCL2 111759Z 18011KT 34/17 A3011 RMK A01 T03360173  RH  038%=      5-min Rain = 0
KCL2 111800Z 17006G11KT 34/17 A3011 RMK A01 T03370172  RH  038%=      5-min Rain = 0
KCL2 111801Z 14004KT 34/17 A3011 RMK A01 T03360170  RH  037%=      5-min Rain = 0
KCL2 111802Z 11003KT 34/17 A3011 RMK A01 T03350167  RH  037%=      5-min Rain = 0
KCL2 111803Z 12002KT 34/17 A3011 RMK A01 T03350168  RH  037%=      5-min Rain = 0
KCL2 111804Z 15003KT 33/17 A3011 RMK A01 T03340171  RH  038%=      5-min Rain = 0
KCL2 111805Z 18005KT 34/17 A3011 RMK A01 T03350169  RH  037%=      5-min Rain = 0
KCL2 111806Z 19006KT 34/18 A3011 RMK A01 T03350178  RH  039%=      5-min Rain = 0
KCL2 111807Z 19010KT 34/18 A3011 RMK A01 T03380182  RH  040%=      5-min Rain = 0
KCL2 111808Z 19011KT 34/18 A3011 RMK A01 T03420179  RH  038%=      5-min Rain = 0
KCL2 111809Z 19009KT 34/18 A3011 RMK A01 T03420179  RH  038%=      5-min Rain = 0
KCL2 111810Z 19007KT 34/18 A3011 RMK A01 T03390181  RH  039%=      5-min Rain = 0
KCL2 111811Z 20009KT 34/18 A3011 RMK A01 T03390180  RH  039%=      5-min Rain = 0
KCL2 111812Z 16006KT 34/18 A3011 RMK A01 T03390179  RH  039%=      5-min Rain = 0
KCL2 111813Z 15008KT 34/18 A3011 RMK A01 T03370177  RH  039%=      5-min Rain = 0
KCL2 111814Z 15005KT 33/17 A3011 RMK A01 T03310171  RH  039%=      5-min Rain = 0
KCL2 111815Z 17002KT 33/18 A3011 RMK A01 T03270176  RH  041%=      5-min Rain = 0
KCL2 111816Z 22004KT 33/18 A301 RMK A01 T03270175  RH  040%=      5-min Rain = 0
KCL2 111817Z 19007KT 33/17 A301 RMK A01 T03290174  RH  040%=      5-min Rain = 0
KCL2 111818Z 18006KT 33/18 A301 RMK A01 T03320175  RH  039%=      5-min Rain = 0
KCL2 111819Z 16013KT 34/18 A301 RMK A01 T03360179  RH  039%=      5-min Rain = 0
KCL2 111820Z 18012KT 34/18 A301 RMK A01 T03370177  RH  039%=      5-min Rain = 0
KCL2 111821Z 17007KT 34/18 A301 RMK A01 T03350175  RH  039%=      5-min Rain = 0
KCL2 111822Z 16010KT 33/18 A301 RMK A01 T03340179  RH  040%=      5-min Rain = 0
KCL2 111823Z 15011KT 33/18 A301 RMK A01 T03330176  RH  039%=      5-min Rain = 0
KCL2 111824Z 14010KT 33/18 A301 RMK A01 T03330180  RH  040%=      5-min Rain = 0
KCL2 111825Z 17009KT 34/18 A301 RMK A01 T03370179  RH  039%=      5-min Rain = 0
KCL2 111826Z 21007G12KT 34/18 A301 RMK A01 T03370178  RH  039%=      5-min Rain = 0
KCL2 111827Z 22003KT 34/18 A301 RMK A01 T03350175  RH  039%=      5-min Rain = 0
KCL2 111828Z 21005KT 33/18 A301 RMK A01 T03340178  RH  040%=      5-min Rain = 0
KCL2 111829Z 18004KT 33/18 A301 RMK A01 T03340179  RH  040%=      5-min Rain = 0
KCL2 111830Z 19006KT 34/18 A301 RMK A01 T03360179  RH  039%=      5-min Rain = 0
KCL2 111831Z 19007G14KT 34/18 A301 RMK A01 T03360178  RH  039%=      5-min Rain = 0
KCL2 111832Z 18011KT 34/18 A301 RMK A01 T03390183  RH  040%=      5-min Rain = 0
KCL2 111833Z 18009KT 34/18 A301 RMK A01 T03440184  RH  039%=      5-min Rain = 0
KCL2 111834Z 18010KT 35/18 A301 RMK A01 T03460183  RH  038%=      5-min Rain = 0
KCL2 111835Z 17009KT 35/18 A301 RMK A01 T03450178  RH  037%=      5-min Rain = 0
KCL2 111836Z 16007KT 34/18 A301 RMK A01 T03400176  RH  038%=      5-min Rain = 0
KCL2 111837Z 16006KT 34/18 A301 RMK A01 T03390178  RH  039%=      5-min Rain = 0
KCL2 111838Z 16005KT 34/18 A301 RMK A01 T03370175  RH  038%=      5-min Rain = 0
KCL2 111839Z 18006KT 34/18 A301 RMK A01 T03350178  RH  039%=      5-min Rain = 0
KCL2 111840Z 13006KT 34/18 A301 RMK A01 T03350175  RH  039%=      5-min Rain = 0
KCL2 111841Z 12006KT 34/18 A301 RMK A01 T03350175  RH  038%=      5-min Rain = 0
KCL2 111842Z 18006KT 34/17 A3009 RMK A01 T03350174  RH  038%=      5-min Rain = 0
KCL2 111843Z 16004KT 33/17 A3009 RMK A01 T03310171  RH  038%=      5-min Rain = 0
KCL2 111844Z 18005KT 33/17 A3009 RMK A01 T03300174  RH  039%=      5-min Rain = 0
KCL2 111845Z 19004KT 33/18 A3009 RMK A01 T03330180  RH  040%=      5-min Rain = 0
KCL2 111846Z 19006KT 34/18 A3009 RMK A01 T03390184  RH  040%=      5-min Rain = 0
KCL2 111847Z 21009KT 35/18 A3009 RMK A01 T03450181  RH  038%=      5-min Rain = 0
KCL2 111848Z 22007KT 35/18 A3009 RMK A01 T03470179  RH  037%=      5-min Rain = 0
KCL2 111849Z 23008KT 35/18 A3009 RMK A01 T03460176  RH  037%=      5-min Rain = 0
KCL2 111850Z 20008KT 34/18 A3009 RMK A01 T03410176  RH  037%=      5-min Rain = 0
KCL2 111851Z 20009KT 34/18 A3009 RMK A01 T03400178  RH  038%=      5-min Rain = 0
KCL2 111852Z 21008KT 34/17 A3009 RMK A01 T03420174  RH  037%=      5-min Rain = 0
KCL2 111853Z 18011KT 34/18 A3009 RMK A01 T03440177  RH  037%=      5-min Rain = 0
KCL2 111854Z 19009KT 35/18 A3009 RMK A01 T03460175  RH  036%=      5-min Rain = 0
KCL2 111855Z 20008KT 34/18 A3009 RMK A01 T03430176  RH  037%=      5-min Rain = 0
KCL2 111856Z 17008KT 35/18 A3009 RMK A01 T03450176  RH  037%=      5-min Rain = 0
KCL2 111857Z 17007KT 34/17 A3009 RMK A01 T03420173  RH  037%=      5-min Rain = 0
KCL2 111858Z 17006KT 34/17 A3009 RMK A01 T03370174  RH  038%=      5-min Rain = 0
KCL2 111859Z 14007KT 34/18 A3009 RMK A01 T03350176  RH  039%=      5-min Rain = 0
KCL2 111900Z 15005KT 33/18 A3009 RMK A01 T03340175  RH  039%=      5-min Rain = 0
KCL2 111901Z 13006KT 33/18 A3009 RMK A01 T03340175  RH  039%=      5-min Rain = 0
KCL2 111902Z 12006KT 34/17 A3009 RMK A01 T03350172  RH  038%=      5-min Rain = 0
KCL2 111903Z 14004KT 34/18 A3009 RMK A01 T03360176  RH  039%=      5-min Rain = 0
KCL2 111904Z 18009KT 34/18 A3008 RMK A01 T03420180  RH  038%=      5-min Rain = 0
KCL2 111905Z 19011KT 34/17 A3008 RMK A01 T03440174  RH  036%=      5-min Rain = 0
KCL2 111906Z 20009KT 34/17 A3008 RMK A01 T03410174  RH  037%=      5-min Rain = 0
KCL2 111907Z 21007KT 34/18 A3008 RMK A01 T03420177  RH  037%=      5-min Rain = 0
KCL2 111908Z 19009KT 35/18 A3008 RMK A01 T03460181  RH  038%=      5-min Rain = 0
KCL2 111909Z 19010KT 35/18 A3008 RMK A01 T03490181  RH  037%=      5-min Rain = 0
KCL2 111910Z 21012KT 35/18 A3008 RMK A01 T03490180  RH  037%=      5-min Rain = 0
KCL2 111911Z 21011KT 34/18 A3008 RMK A01 T03440175  RH  037%=      5-min Rain = 0
KCL2 111912Z 22006KT 34/18 A3008 RMK A01 T03400175  RH  037%=      5-min Rain = 0
KCL2 111913Z 18007KT 34/18 A3008 RMK A01 T03420181  RH  039%=      5-min Rain = 0
KCL2 111914Z 17007KT 35/18 A3008 RMK A01 T03450179  RH  038%=      5-min Rain = 0
KCL2 111915Z 21006KT 35/18 A3008 RMK A01 T03460181  RH  038%=      5-min Rain = 0
KCL2 111916Z 18006KT 35/18 A3008 RMK A01 T03490182  RH  037%=      5-min Rain = 0
KCL2 111917Z 18011G18KT 35/18 A3008 RMK A01 T03510182  RH  037%=      5-min Rain = 0
KCL2 111918Z 18011KT 35/18 A3008 RMK A01 T03510180  RH  036%=      5-min Rain = 0
KCL2 111919Z 19010KT 35/18 A3008 RMK A01 T03480179  RH  037%=      5-min Rain = 0
KCL2 111920Z 19008G13KT 35/18 A3008 RMK A01 T03460177  RH  037%=      5-min Rain = 0
KCL2 111921Z 19004KT 34/18 A3008 RMK A01 T03440177  RH  037%=      5-min Rain = 0
KCL2 111922Z 18006KT 34/18 A3008 RMK A01 T03430177  RH  037%=      5-min Rain = 0
KCL2 111923Z 17008KT 34/18 A3008 RMK A01 T03400177  RH  038%=      5-min Rain = 0
KCL2 111924Z 15008KT 34/17 A3008 RMK A01 T03360171  RH  037%=      5-min Rain = 0
KCL2 111925Z 13005KT 33/17 A3008 RMK A01 T03330171  RH  038%=      5-min Rain = 0
KCL2 111926Z 14006KT 33/17 A3008 RMK A01 T03320170  RH  038%=      5-min Rain = 0
KCL2 111927Z 13006KT 33/17 A3008 RMK A01 T03310167  RH  038%=      5-min Rain = 0
KCL2 111928Z 14005KT 33/17 A3008 RMK A01 T03300171  RH  039%=      5-min Rain = 0
KCL2 111929Z 15006KT 33/17 A3007 RMK A01 T03300172  RH  039%=      5-min Rain = 0
KCL2 111930Z 16008KT 33/18 A3007 RMK A01 T03310176  RH  040%=      5-min Rain = 0
KCL2 111931Z 15007KT 33/18 A3007 RMK A01 T03310179  RH  040%=      5-min Rain = 0
KCL2 111932Z 16011KT 33/18 A3007 RMK A01 T03320177  RH  040%=      5-min Rain = 0
KCL2 111933Z 15010KT 33/18 A3007 RMK A01 T03310176  RH  040%=      5-min Rain = 0
KCL2 111934Z 17010KT 33/18 A3007 RMK A01 T03310177  RH  040%=      5-min Rain = 0
KCL2 111935Z 16010KT 33/17 A3007 RMK A01 T03310173  RH  039%=      5-min Rain = 0
KCL2 111936Z 16006KT 33/18 A3007 RMK A01 T03310177  RH  040%=      5-min Rain = 0
KCL2 111937Z 15009KT 33/17 A3007 RMK A01 T03310174  RH  039%=      5-min Rain = 0
KCL2 111938Z 16008KT 33/17 A3007 RMK A01 T03300172  RH  039%=      5-min Rain = 0
KCL2 111939Z 17007KT 33/17 A3007 RMK A01 T03300173  RH  039%=      5-min Rain = 0
KCL2 111940Z 16007KT 33/17 A3007 RMK A01 T03300173  RH  039%=      5-min Rain = 0
KCL2 111941Z 16006KT 33/17 A3007 RMK A01 T03300172  RH  039%=      5-min Rain = 0
KCL2 111942Z 16006KT 33/17 A3007 RMK A01 T03290172  RH  039%=      5-min Rain = 0
KCL2 111943Z 18005KT 33/17 A3007 RMK A01 T03300173  RH  039%=      5-min Rain = 0
KCL2 111944Z 18005KT 33/17 A3007 RMK A01 T03300170  RH  039%=      5-min Rain = 0
KCL2 111945Z 17005KT 33/17 A3007 RMK A01 T03300173  RH  039%=      5-min Rain = 0
KCL2 111946Z 17005KT 33/17 A3007 RMK A01 T03300174  RH  039%=      5-min Rain = 0
KCL2 111947Z 17005KT 33/17 A3007 RMK A01 T03310173  RH  039%=      5-min Rain = 0
KCL2 111948Z 15004KT 33/18 A3007 RMK A01 T03300175  RH  040%=      5-min Rain = 0
KCL2 111949Z 13006KT 33/18 A3007 RMK A01 T03290175  RH  040%=      5-min Rain = 0
KCL2 111950Z 16009KT 33/18 A3007 RMK A01 T03290179  RH  041%=      5-min Rain = 0
KCL2 111951Z 15010KT 33/18 A3007 RMK A01 T03290176  RH  040%=      5-min Rain = 0
KCL2 111952Z 16009KT 33/18 A3007 RMK A01 T03290175  RH  040%=      5-min Rain = 0
KCL2 111953Z 16006KT 33/18 A3007 RMK A01 T03290175  RH  040%=      5-min Rain = 0
KCL2 111954Z 15005KT 33/18 A3007 RMK A01 T03280175  RH  040%=      5-min Rain = 0
KCL2 111955Z 13004KT 33/18 A3007 RMK A01 T03290175  RH  040%=      5-min Rain = 0
KCL2 111956Z 11004KT 33/18 A3006 RMK A01 T03330181  RH  040%=      5-min Rain = 0
KCL2 111957Z 11006KT 34/18 A3006 RMK A01 T03370179  RH  039%=      5-min Rain = 0
KCL2 111958Z 12005KT 34/18 A3006 RMK A01 T03390175  RH  038%=      5-min Rain = 0
KCL2 111959Z 10005KT 34/18 A3006 RMK A01 T03400178  RH  038%=      5-min Rain = 0
KCL2 112000Z 12005KT 34/18 A3006 RMK A01 T03420177  RH  038%=      5-min Rain = 0
KCL2 112001Z 15007G14KT 34/18 A3006 RMK A01 T03430179  RH  038%=      5-min Rain = 0
KCL2 112002Z 15012G17KT 34/18 A3006 RMK A01 T03430178  RH  038%=      5-min Rain = 0
KCL2 112003Z 16009KT 34/18 A3006 RMK A01 T03430175  RH  037%=      5-min Rain = 0
KCL2 112004Z 16011KT 34/18 A3006 RMK A01 T03420176  RH  037%=      5-min Rain = 0
KCL2 112005Z 15007KT 34/18 A3006 RMK A01 T03430175  RH  037%=      5-min Rain = 0
KCL2 112006Z 16005KT 34/17 A3006 RMK A01 T03430173  RH  036%=      5-min Rain = 0
KCL2 112007Z 13009KT 34/18 A3006 RMK A01 T03430175  RH  037%=      5-min Rain = 0
KCL2 112008Z 13008KT 35/17 A3006 RMK A01 T03450173  RH  036%=      5-min Rain = 0
KCL2 112009Z 13008KT 35/17 A3006 RMK A01 T03460173  RH  036%=      5-min Rain = 0
KCL2 112010Z 12008KT 35/17 A3006 RMK A01 T03460172  RH  036%=      5-min Rain = 0
KCL2 112011Z 11008KT 35/17 A3006 RMK A01 T03460174  RH  036%=      5-min Rain = 0
KCL2 112012Z 13011KT 35/17 A3006 RMK A01 T03460172  RH  036%=      5-min Rain = 0
KCL2 112013Z 13009KT 35/17 A3006 RMK A01 T03450172  RH  036%=      5-min Rain = 0
KCL2 112014Z 15011KT 35/18 A3005 RMK A01 T03460175  RH  036%=      5-min Rain = 0
KCL2 112015Z 16008KT 35/17 A3005 RMK A01 T03470173  RH  036%=      5-min Rain = 0
KCL2 112016Z 18006KT 35/17 A3005 RMK A01 T03470172  RH  035%=      5-min Rain = 0
KCL2 112017Z 17007KT 35/17 A3005 RMK A01 T03470173  RH  036%=      5-min Rain = 0
KCL2 112018Z 14009KT 35/17 A3005 RMK A01 T03450171  RH  036%=      5-min Rain = 0
KCL2 112019Z 14008KT 34/17 A3005 RMK A01 T03440170  RH  036%=      5-min Rain = 0
KCL2 112020Z 15006KT 34/17 A3005 RMK A01 T03440171  RH  036%=      5-min Rain = 0
KCL2 112021Z 16006KT 35/17 A3005 RMK A01 T03470171  RH  035%=      5-min Rain = 0
KCL2 112022Z 17007KT 35/17 A3005 RMK A01 T03480170  RH  035%=      5-min Rain = 0
KCL2 112023Z 16008KT 35/17 A3005 RMK A01 T03480174  RH  036%=      5-min Rain = 0
KCL2 112024Z 15007KT 35/17 A3005 RMK A01 T03480170  RH  035%=      5-min Rain = 0
KCL2 112025Z 14006KT 35/17 A3005 RMK A01 T03470172  RH  035%=      5-min Rain = 0
KCL2 112026Z 16009KT 35/17 A3005 RMK A01 T03480172  RH  035%=      5-min Rain = 0
KCL2 112027Z 16009KT 35/17 A3005 RMK A01 T03500170  RH  034%=      5-min Rain = 0
KCL2 112028Z 17008KT 35/17 A3005 RMK A01 T03500171  RH  035%=      5-min Rain = 0
KCL2 112029Z 16010KT 35/17 A3005 RMK A01 T03500171  RH  035%=      5-min Rain = 0
KCL2 112030Z 19010KT 35/17 A3005 RMK A01 T03500168  RH  034%=      5-min Rain = 0
KCL2 112031Z 20009KT 35/17 A3004 RMK A01 T03500172  RH  035%=      5-min Rain = 0
KCL2 112032Z 19009KT 35/17 A3005 RMK A01 T03520172  RH  034%=      5-min Rain = 0
KCL2 112033Z 19007KT 35/17 A3004 RMK A01 T03500169  RH  034%=      5-min Rain = 0
KCL2 112034Z 18009KT 35/17 A3004 RMK A01 T03470171  RH  035%=      5-min Rain = 0
KCL2 112035Z 18009KT 35/17 A3004 RMK A01 T03460170  RH  035%=      5-min Rain = 0
KCL2 112036Z 16008KT 35/17 A3004 RMK A01 T03460170  RH  035%=      5-min Rain = 0
KCL2 112037Z 17009KT 35/17 A3004 RMK A01 T03470171  RH  035%=      5-min Rain = 0
KCL2 112038Z 16010KT 35/17 A3004 RMK A01 T03490169  RH  034%=      5-min Rain = 0
KCL2 112039Z 13009KT 35/17 A3004 RMK A01 T03510174  RH  035%=      5-min Rain = 0
KCL2 112040Z 14010KT 35/17 A3004 RMK A01 T03530171  RH  034%=      5-min Rain = 0
KCL2 112041Z 14008KT 35/17 A3004 RMK A01 T03510168  RH  034%=      5-min Rain = 0
KCL2 112042Z 15007KT 35/17 A3004 RMK A01 T03500168  RH  034%=      5-min Rain = 0
KCL2 112043Z 12008KT 35/17 A3004 RMK A01 T03500171  RH  034%=      5-min Rain = 0
KCL2 112044Z 13009KT 35/17 A3004 RMK A01 T03520170  RH  034%=      5-min Rain = 0
KCL2 112045Z 13011KT 35/17 A3004 RMK A01 T03530174  RH  035%=      5-min Rain = 0
KCL2 112046Z 13008KT 36/17 A3004 RMK A01 T03550173  RH  034%=      5-min Rain = 0
KCL2 112047Z 13010KT 36/18 A3004 RMK A01 T03560175  RH  034%=      5-min Rain = 0
KCL2 112048Z 15011KT 36/17 A3004 RMK A01 T03560173  RH  034%=      5-min Rain = 0
KCL2 112049Z 17011KT 36/17 A3004 RMK A01 T03550174  RH  034%=      5-min Rain = 0
KCL2 112050Z 16013KT 36/17 A3004 RMK A01 T03550171  RH  034%=      5-min Rain = 0
KCL2 112051Z 15007KT 35/17 A3004 RMK A01 T03540170  RH  034%=      5-min Rain = 0
KCL2 112052Z 15009KT 36/17 A3004 RMK A01 T03550174  RH  034%=      5-min Rain = 0
KCL2 112053Z 15012KT 36/17 A3004 RMK A01 T03580173  RH  033%=      5-min Rain = 0
KCL2 112054Z 15009KT 35/17 A3004 RMK A01 T03540168  RH  033%=      5-min Rain = 0
KCL2 112055Z 15009KT 35/17 A3004 RMK A01 T03500169  RH  034%=      5-min Rain = 0
KCL2 112056Z 13007KT 35/17 A3004 RMK A01 T03480170  RH  035%=      5-min Rain = 0
KCL2 112057Z 15006KT 35/17 A3004 RMK A01 T03490170  RH  035%=      5-min Rain = 0
KCL2 112058Z 13006KT 35/17 A3004 RMK A01 T03490169  RH  034%=      5-min Rain = 0
KCL2 112059Z 14006KT 35/17 A3003 RMK A01 T03500171  RH  035%=      5-min Rain = 0
KCL2 112100Z 16008KT 35/17 A3003 RMK A01 T03510170  RH  034%=      5-min Rain = 0
KCL2 112101Z 14010KT 35/17 A3003 RMK A01 T03510168  RH  034%=      5-min Rain = 0
KCL2 112102Z 14008KT 35/17 A3003 RMK A01 T03490168  RH  034%=      5-min Rain = 0
KCL2 112103Z 13007KT 35/17 A3003 RMK A01 T03490168  RH  034%=      5-min Rain = 0
KCL2 112104Z 13006KT 35/17 A3003 RMK A01 T03490166  RH  034%=      5-min Rain = 0
KCL2 112105Z 15006KT 35/17 A3003 RMK A01 T03470166  RH  034%=      5-min Rain = 0
KCL2 112106Z 16003KT 35/17 A3003 RMK A01 T03460166  RH  034%=      5-min Rain = 0
KCL2 112107Z 18005KT 35/17 A3003 RMK A01 T03460167  RH  035%=      5-min Rain = 0
KCL2 112108Z 15005G12KT 35/17 A3003 RMK A01 T03470169  RH  035%=      5-min Rain = 0
KCL2 112109Z 16011KT 35/17 A3003 RMK A01 T03490167  RH  034%=      5-min Rain = 0
KCL2 112110Z 16011KT 35/17 A3003 RMK A01 T03490168  RH  034%=      5-min Rain = 0
KCL2 112111Z 14009KT 35/17 A3003 RMK A01 T03480167  RH  034%=      5-min Rain = 0
KCL2 112112Z 14012KT 35/17 A3003 RMK A01 T03480168  RH  034%=      5-min Rain = 0
KCL2 112113Z 15010KT 35/17 A3003 RMK A01 T03490170  RH  035%=      5-min Rain = 0
KCL2 112114Z 15011KT 35/17 A3003 RMK A01 T03500169  RH  034%=      5-min Rain = 0
KCL2 112115Z 14009KT 35/17 A3002 RMK A01 T03500170  RH  034%=      5-min Rain = 0
KCL2 112116Z 13008KT 35/17 A3002 RMK A01 T03510170  RH  034%=      5-min Rain = 0
KCL2 112117Z 15009KT 35/17 A3002 RMK A01 T03510174  RH  035%=      5-min Rain = 0
KCL2 112118Z 16010KT 35/17 A3002 RMK A01 T03530168  RH  033%=      5-min Rain = 0
KCL2 112119Z 17008KT 35/17 A3002 RMK A01 T03490167  RH  034%=      5-min Rain = 0
KCL2 112120Z 15010KT 35/17 A3002 RMK A01 T03460169  RH  035%=      5-min Rain = 0
KCL2 112121Z 15011KT 35/17 A3002 RMK A01 T03460167  RH  035%=      5-min Rain = 0
KCL2 112122Z 16008KT 35/17 A3002 RMK A01 T03460168  RH  035%=      5-min Rain = 0
KCL2 112123Z 17009G14KT 35/17 A3002 RMK A01 T03450168  RH  035%=      5-min Rain = 0
KCL2 112124Z 17010KT 34/17 A3002 RMK A01 T03440169  RH  035%=      5-min Rain = 0
KCL2 112125Z 16011KT 35/17 A3002 RMK A01 T03480171  RH  035%=      5-min Rain = 0
KCL2 112126Z 15007KT 35/17 A3002 RMK A01 T03510167  RH  034%=      5-min Rain = 0
KCL2 112127Z 13009KT 35/17 A3002 RMK A01 T03480168  RH  034%=      5-min Rain = 0
KCL2 112128Z 16011KT 35/17 A3002 RMK A01 T03460169  RH  035%=      5-min Rain = 0
KCL2 112129Z 16010KT 35/17 A3002 RMK A01 T03450168  RH  035%=      5-min Rain = 0
KCL2 112130Z 17010KT 35/17 A3002 RMK A01 T03450168  RH  035%=      5-min Rain = 0
KCL2 112131Z 16009KT 35/17 A3002 RMK A01 T03480169  RH  035%=      5-min Rain = 0
KCL2 112132Z 17009KT 35/17 A3002 RMK A01 T03510171  RH  034%=      5-min Rain = 0
KCL2 112133Z 16008KT 35/17 A3002 RMK A01 T03530169  RH  034%=      5-min Rain = 0
KCL2 112134Z 17005KT 35/17 A3002 RMK A01 T03520168  RH  034%=      5-min Rain = 0
KCL2 112135Z 15012KT 35/17 A3002 RMK A01 T03520172  RH  034%=      5-min Rain = 0
KCL2 112136Z 14008KT 35/17 A3002 RMK A01 T03520165  RH  033%=      5-min Rain = 0
KCL2 112137Z 14007KT 35/16 A3001 RMK A01 T03470164  RH  034%=      5-min Rain = 0
KCL2 112138Z 14010KT 34/17 A3001 RMK A01 T03440166  RH  035%=      5-min Rain = 0
KCL2 112139Z 14011KT 34/16 A3001 RMK A01 T03430163  RH  034%=      5-min Rain = 0
KCL2 112140Z 14011KT 34/16 A3001 RMK A01 T03410163  RH  035%=      5-min Rain = 0
KCL2 112141Z 14010KT 34/16 A3001 RMK A01 T03400164  RH  035%=      5-min Rain = 0
KCL2 112142Z 13009KT 34/16 A3001 RMK A01 T03390162  RH  035%=      5-min Rain = 0
KCL2 112143Z 12008G13KT 34/17 A3001 RMK A01 T03380165  RH  035%=      5-min Rain = 0
KCL2 112144Z 13011KT 34/17 A3001 RMK A01 T03380165  RH  036%=      5-min Rain = 0
KCL2 112145Z 13009KT 34/16 A3001 RMK A01 T03380164  RH  035%=      5-min Rain = 0
KCL2 112146Z 13009KT 34/17 A3001 RMK A01 T03400166  RH  036%=      5-min Rain = 0
KCL2 112147Z 15008G13KT 34/17 A3001 RMK A01 T03440170  RH  036%=      5-min Rain = 0
KCL2 112148Z 16010KT 35/17 A3001 RMK A01 T03480168  RH  034%=      5-min Rain = 0
KCL2 112149Z 16012G17KT 35/17 A3001 RMK A01 T03500166  RH  033%=      5-min Rain = 0
KCL2 112150Z 18013KT 35/17 A3001 RMK A01 T03500167  RH  034%=      5-min Rain = 0
KCL2 112151Z 18012KT 35/17 A3001 RMK A01 T03520167  RH  033%=      5-min Rain = 0
KCL2 112152Z 18009KT 35/17 A3001 RMK A01 T03520165  RH  033%=      5-min Rain = 0
KCL2 112153Z 17008KT 35/17 A3001 RMK A01 T03520170  RH  034%=      5-min Rain = 0
KCL2 112154Z 17009KT 35/16 A3001 RMK A01 T03540164  RH  032%=      5-min Rain = 0
KCL2 112155Z 18006KT 35/17 A3001 RMK A01 T03540168  RH  033%=      5-min Rain = 0
KCL2 112156Z 19009KT 36/17 A3001 RMK A01 T03560168  RH  033%=      5-min Rain = 0
KCL2 112157Z 19006KT 36/17 A3001 RMK A01 T03560166  RH  033%=      5-min Rain = 0
KCL2 112158Z 17006KT 36/17 A3001 RMK A01 T03560168  RH  033%=      5-min Rain = 0
KCL2 112159Z 15005KT 36/17 A3001 RMK A01 T03560168  RH  033%=      5-min Rain = 0
KCL2 112200Z 16009KT 36/17 A3001 RMK A01 T03570171  RH  033%=      5-min Rain = 0
KCL2 112201Z 18010KT 36/17 A30 RMK A01 T03570171  RH  033%=      5-min Rain = 0
KCL2 112202Z 15010KT 36/17 A30 RMK A01 T03580172  RH  033%=      5-min Rain = 0
KCL2 112203Z 16011KT 36/17 A30 RMK A01 T03580170  RH  033%=      5-min Rain = 0
KCL2 112204Z 16011KT 36/17 A30 RMK A01 T03580171  RH  033%=      5-min Rain = 0
KCL2 112205Z 15010KT 36/17 A30 RMK A01 T03580172  RH  033%=      5-min Rain = 0
KCL2 112206Z 16012KT 36/17 A30 RMK A01 T03590170  RH  033%=      5-min Rain = 0
KCL2 112207Z 17010KT 36/17 A30 RMK A01 T03590171  RH  033%=      5-min Rain = 0
KCL2 112208Z 16007KT 36/17 A30 RMK A01 T03580170  RH  033%=      5-min Rain = 0
KCL2 112209Z 15006KT 36/17 A30 RMK A01 T03560171  RH  034%=      5-min Rain = 0
KCL2 112210Z 16006KT 36/17 A30 RMK A01 T03570168  RH  033%=      5-min Rain = 0
KCL2 112211Z 16005KT 35/17 A30 RMK A01 T03540166  RH  033%=      5-min Rain = 0
KCL2 112212Z 14006KT 35/17 A30 RMK A01 T03520169  RH  034%=      5-min Rain = 0
KCL2 112213Z 14007KT 35/17 A30 RMK A01 T03530169  RH  034%=      5-min Rain = 0
KCL2 112214Z 14009KT 36/17 A30 RMK A01 T03560170  RH  033%=      5-min Rain = 0
KCL2 112215Z 15008KT 36/17 A30 RMK A01 T03570172  RH  034%=      5-min Rain = 0
KCL2 112216Z 15010KT 36/17 A30 RMK A01 T03580168  RH  032%=      5-min Rain = 0
KCL2 112217Z 14006KT 36/17 A30 RMK A01 T03560165  RH  032%=      5-min Rain = 0
KCL2 112218Z 17005KT 35/17 A30 RMK A01 T03540168  RH  033%=      5-min Rain = 0
KCL2 112219Z 19006KT 36/17 A30 RMK A01 T03550170  RH  033%=      5-min Rain = 0
KCL2 112220Z 17006KT 36/17 A30 RMK A01 T03570167  RH  032%=      5-min Rain = 0
KCL2 112221Z 15004KT 36/17 A30 RMK A01 T03570168  RH  033%=      5-min Rain = 0
KCL2 112222Z 17008KT 36/17 A2999 RMK A01 T03580172  RH  033%=      5-min Rain = 0
KCL2 112223Z 18008KT 36/17 A30 RMK A01 T03570170  RH  033%=      5-min Rain = 0
KCL2 112224Z 20007KT 35/17 A30 RMK A01 T03540168  RH  033%=      5-min Rain = 0
KCL2 112225Z 19007KT 35/17 A30 RMK A01 T03520165  RH  033%=      5-min Rain = 0
KCL2 112226Z 19006KT 35/17 A30 RMK A01 T03520168  RH  034%=      5-min Rain = 0
KCL2 112227Z 18006KT 35/17 A2999 RMK A01 T03540168  RH  033%=      5-min Rain = 0
KCL2 112228Z 16009KT 36/17 A2999 RMK A01 T03570166  RH  032%=      5-min Rain = 0
KCL2 112229Z 18010KT 36/17 A2999 RMK A01 T03580166  RH  032%=      5-min Rain = 0
KCL2 112230Z 17012KT 36/17 A2999 RMK A01 T03580165  RH  032%=      5-min Rain = 0
KCL2 112231Z 17011G16KT 36/17 A2999 RMK A01 T03580168  RH  033%=      5-min Rain = 0
KCL2 112232Z 17013KT 36/16 A2999 RMK A01 T03580163  RH  032%=      5-min Rain = 0
KCL2 112233Z 17008KT 36/17 A2999 RMK A01 T03560166  RH  033%=      5-min Rain = 0
KCL2 112234Z 17008KT 36/16 A2999 RMK A01 T03560164  RH  032%=      5-min Rain = 0
KCL2 112235Z 16006KT 36/16 A2999 RMK A01 T03560164  RH  032%=      5-min Rain = 0
KCL2 112236Z 17010KT 36/17 A2999 RMK A01 T03560170  RH  033%=      5-min Rain = 0
KCL2 112237Z 17012KT 36/17 A2999 RMK A01 T03580171  RH  033%=      5-min Rain = 0
KCL2 112238Z 19013KT 36/17 A2999 RMK A01 T03600173  RH  033%=      5-min Rain = 0
KCL2 112239Z 17012KT 36/17 A2999 RMK A01 T03610173  RH  033%=      5-min Rain = 0
KCL2 112240Z 15008KT 36/18 A2999 RMK A01 T03600176  RH  034%=      5-min Rain = 0
KCL2 112241Z 14008KT 36/18 A2999 RMK A01 T03630175  RH  033%=      5-min Rain = 0
KCL2 112242Z 12010KT 36/17 A2999 RMK A01 T03610171  RH  033%=      5-min Rain = 0
KCL2 112243Z 17011G16KT 36/17 A2999 RMK A01 T03590172  RH  033%=      5-min Rain = 0
KCL2 112244Z 20008KT 36/18 A2999 RMK A01 T03590175  RH  034%=      5-min Rain = 0
KCL2 112245Z 19011KT 36/17 A2999 RMK A01 T03610172  RH  033%=      5-min Rain = 0
KCL2 112246Z 19010KT 36/17 A2999 RMK A01 T03580169  RH  033%=      5-min Rain = 0
KCL2 112247Z 19008KT 36/17 A2999 RMK A01 T03560168  RH  033%=      5-min Rain = 0
KCL2 112248Z 18008KT 36/17 A2999 RMK A01 T03550173  RH  034%=      5-min Rain = 0
KCL2 112249Z 19008KT 36/17 A2999 RMK A01 T03580169  RH  033%=      5-min Rain = 0
KCL2 112250Z 20007KT 36/17 A2999 RMK A01 T03580173  RH  033%=      5-min Rain = 0
KCL2 112251Z 19008KT 36/17 A2999 RMK A01 T03600173  RH  033%=      5-min Rain = 0
KCL2 112252Z 19007KT 36/17 A2999 RMK A01 T03610169  RH  032%=      5-min Rain = 0
KCL2 112253Z 17008KT 36/17 A2999 RMK A01 T03600167  RH  032%=      5-min Rain = 0
KCL2 112254Z 16010KT 36/17 A2999 RMK A01 T03580170  RH  033%=      5-min Rain = 0
KCL2 112255Z 18009KT 36/17 A2999 RMK A01 T03600168  RH  032%=      5-min Rain = 0
KCL2 112256Z 17008KT 36/17 A2999 RMK A01 T03580166  RH  032%=      5-min Rain = 0
KCL2 112257Z 17006KT 36/17 A2999 RMK A01 T03560168  RH  033%=      5-min Rain = 0
KCL2 112258Z 17011KT 36/17 A2999 RMK A01 T03560167  RH  033%=      5-min Rain = 0
KCL2 112259Z 18008KT 36/17 A2999 RMK A01 T03560166  RH  032%=      5-min Rain = 0
KCL2 112300Z 19007KT 36/17 A2999 RMK A01 T03560165  RH  032%=      5-min Rain = 0
KCL2 112301Z 17005KT 36/17 A2999 RMK A01 T03560165  RH  032%=      5-min Rain = 0
KCL2 112302Z 19007KT 36/17 A2998 RMK A01 T03580167  RH  032%=      5-min Rain = 0
KCL2 112303Z 18006KT 36/16 A2998 RMK A01 T03580164  RH  032%=      5-min Rain = 0
KCL2 112304Z 19004KT 36/17 A2998 RMK A01 T03570166  RH  032%=      5-min Rain = 0
KCL2 112305Z 19006KT 36/17 A2998 RMK A01 T03580168  RH  032%=      5-min Rain = 0
KCL2 112306Z 16011KT 36/17 A2998 RMK A01 T03590168  RH  032%=      5-min Rain = 0
KCL2 112307Z 13008KT 36/16 A2998 RMK A01 T03590164  RH  032%=      5-min Rain = 0
KCL2 112308Z 16006KT 36/17 A2998 RMK A01 T03570167  RH  032%=      5-min Rain = 0
KCL2 112309Z 15008KT 36/17 A2998 RMK A01 T03580169  RH  033%=      5-min Rain = 0
KCL2 112310Z 14006KT 36/17 A2998 RMK A01 T03590168  RH  032%=      5-min Rain = 0
KCL2 112311Z 14007KT 36/17 A2998 RMK A01 T03600168  RH  032%=      5-min Rain = 0
KCL2 112312Z 14004KT 36/17 A2998 RMK A01 T03590167  RH  032%=      5-min Rain = 0
KCL2 112313Z 16005KT 36/17 A2998 RMK A01 T03590169  RH  032%=      5-min Rain = 0
KCL2 112314Z 14008KT 36/17 A2998 RMK A01 T03600169  RH  032%=      5-min Rain = 0
KCL2 112315Z 14010KT 36/17 A2998 RMK A01 T03590166  RH  032%=      5-min Rain = 0
KCL2 112316Z 14007KT 36/17 A2998 RMK A01 T03560167  RH  033%=      5-min Rain = 0
KCL2 112317Z 13006KT 36/17 A2998 RMK A01 T03550167  RH  033%=      5-min Rain = 0
KCL2 112318Z 13006KT 36/17 A2998 RMK A01 T03560168  RH  033%=      5-min Rain = 0
KCL2 112319Z 12009KT 36/17 A2998 RMK A01 T03560171  RH  033%=      5-min Rain = 0
KCL2 112320Z 13009KT 36/17 A2998 RMK A01 T03560169  RH  033%=      5-min Rain = 0
KCL2 112321Z 14008KT 36/17 A2998 RMK A01 T03560169  RH  033%=      5-min Rain = 0
KCL2 112322Z 12011KT 36/17 A2998 RMK A01 T03570168  RH  033%=      5-min Rain = 0
KCL2 112323Z 12011KT 36/16 A2998 RMK A01 T03550164  RH  032%=      5-min Rain = 0
KCL2 112324Z 13009KT 35/16 A2998 RMK A01 T03530163  RH  032%=      5-min Rain = 0
KCL2 112325Z 15008KT 35/16 A2998 RMK A01 T03520162  RH  032%=      5-min Rain = 0
KCL2 112326Z 14008KT 35/16 A2998 RMK A01 T03520162  RH  032%=      5-min Rain = 0
KCL2 112327Z 12007KT 35/17 A2998 RMK A01 T03530165  RH  033%=      5-min Rain = 0
KCL2 112328Z 12007G12KT 36/17 A2998 RMK A01 T03550166  RH  033%=      5-min Rain = 0
KCL2 112329Z 14008KT 36/17 A2998 RMK A01 T03560166  RH  033%=      5-min Rain = 0
KCL2 112330Z 15008G13KT 36/17 A2998 RMK A01 T03560166  RH  032%=      5-min Rain = 0
KCL2 112331Z 15011KT 36/17 A2998 RMK A01 T03550165  RH  032%=      5-min Rain = 0
KCL2 112332Z 15009KT 35/16 A2998 RMK A01 T03530163  RH  032%=      5-min Rain = 0
KCL2 112333Z 16009KT 35/16 A2998 RMK A01 T03520163  RH  033%=      5-min Rain = 0
KCL2 112334Z 17008KT 35/16 A2998 RMK A01 T03510164  RH  033%=      5-min Rain = 0
KCL2 112335Z 15007KT 35/16 A2998 RMK A01 T03500163  RH  033%=      5-min Rain = 0
KCL2 112336Z 17008KT 35/16 A2998 RMK A01 T03480163  RH  033%=      5-min Rain = 0
KCL2 112337Z 17007KT 35/16 A2998 RMK A01 T03460164  RH  034%=      5-min Rain = 0
KCL2 112338Z 13007KT 35/16 A2998 RMK A01 T03460163  RH  034%=      5-min Rain = 0
KCL2 112339Z 15009KT 35/16 A2998 RMK A01 T03460163  RH  034%=      5-min Rain = 0
KCL2 112340Z 15009KT 35/16 A2998 RMK A01 T03480161  RH  033%=      5-min Rain = 0
KCL2 112341Z 15009KT 35/16 A2998 RMK A01 T03480162  RH  033%=      5-min Rain = 0
KCL2 112342Z 16009KT 35/16 A2998 RMK A01 T03470164  RH  034%=      5-min Rain = 0
KCL2 112343Z 15007KT 35/17 A2998 RMK A01 T03470166  RH  034%=      5-min Rain = 0
KCL2 112344Z 12007KT 35/17 A2998 RMK A01 T03500169  RH  034%=      5-min Rain = 0
KCL2 112345Z 13008KT 35/17 A2998 RMK A01 T03510167  RH  033%=      5-min Rain = 0
KCL2 112346Z 14009KT 35/17 A2998 RMK A01 T03510166  RH  033%=      5-min Rain = 0
KCL2 112347Z 15008KT 35/17 A2998 RMK A01 T03490166  RH  034%=      5-min Rain = 0
KCL2 112348Z 14007KT 35/17 A2998 RMK A01 T03470167  RH  034%=      5-min Rain = 0
KCL2 112349Z 15009KT 35/17 A2998 RMK A01 T03450165  RH  034%=      5-min Rain = 0
KCL2 112350Z 15008KT 34/16 A2998 RMK A01 T03440164  RH  034%=      5-min Rain = 0
KCL2 112351Z 14007KT 34/16 A2998 RMK A01 T03420163  RH  034%=      5-min Rain = 0
KCL2 112352Z 14008KT 34/16 A2998 RMK A01 T03410163  RH  035%=      5-min Rain = 0
KCL2 112353Z 13008KT 34/17 A2998 RMK A01 T03410165  RH  035%=      5-min Rain = 0
KCL2 112354Z 12009KT 34/16 A2998 RMK A01 T03410163  RH  035%=      5-min Rain = 0
KCL2 112355Z 13008KT 34/17 A2998 RMK A01 T03430165  RH  035%=      5-min Rain = 0
KCL2 112356Z 13007KT 34/17 A2998 RMK A01 T03440165  RH  034%=      5-min Rain = 0
KCL2 112357Z 15007KT 35/17 A2997 RMK A01 T03460167  RH  034%=      5-min Rain = 0
KCL2 112358Z 14007KT 35/17 A2997 RMK A01 T03470166  RH  034%=      5-min Rain = 0
KCL2 112359Z 14006KT 35/17 A2997 RMK A01 T03480167  RH  034%=      5-min Rain = 0
KCL2 120000Z 15005KT 35/17 A2997 RMK A01 T03480165  RH  034%=      5-min Rain = 0
KCL2 120001Z 16004KT 35/17 A2997 RMK A01 T03480168  RH  034%=      5-min Rain = 0
KCL2 120002Z 13005KT 35/17 A2997 RMK A01 T03490165  RH  034%=      5-min Rain = 0
KCL2 120003Z 12007KT 35/17 A2997 RMK A01 T03490167  RH  034%=      5-min Rain = 0
KCL2 120004Z 13005KT 35/17 A2998 RMK A01 T03490165  RH  034%=      5-min Rain = 0
KCL2 120005Z 12004KT 35/17 A2997 RMK A01 T03480166  RH  034%=      5-min Rain = 0
KCL2 120006Z 12004KT 35/17 A2997 RMK A01 T03480166  RH  034%=      5-min Rain = 0
KCL2 120007Z 12004KT 35/17 A2997 RMK A01 T03480166  RH  034%=      5-min Rain = 0
KCL2 120008Z 16005KT 35/17 A2997 RMK A01 T03480165  RH  034%=      5-min Rain = 0
KCL2 120009Z 15006KT 35/17 A2997 RMK A01 T03480166  RH  034%=      5-min Rain = 0
KCL2 120010Z 15007KT 35/17 A2998 RMK A01 T03490169  RH  034%=      5-min Rain = 0
KCL2 120011Z 14007KT 35/17 A2998 RMK A01 T03490167  RH  034%=      5-min Rain = 0
KCL2 120012Z 16006KT 35/17 A2998 RMK A01 T03490166  RH  034%=      5-min Rain = 0
KCL2 120013Z 18004KT 35/17 A2998 RMK A01 T03500168  RH  034%=      5-min Rain = 0
KCL2 120014Z 18007KT 35/17 A2998 RMK A01 T03500169  RH  034%=      5-min Rain = 0
KCL2 120015Z 17007KT 35/17 A2998 RMK A01 T03490168  RH  034%=      5-min Rain = 0
KCL2 120016Z 16008KT 35/17 A2998 RMK A01 T03490166  RH  034%=      5-min Rain = 0
KCL2 120017Z 15008KT 35/17 A2998 RMK A01 T03480165  RH  034%=      5-min Rain = 0
KCL2 120018Z 15007KT 35/16 A2998 RMK A01 T03480163  RH  033%=      5-min Rain = 0
KCL2 120019Z 14008KT 35/16 A2998 RMK A01 T03480164  RH  034%=      5-min Rain = 0
KCL2 120020Z 15008KT 35/16 A2998 RMK A01 T03470162  RH  033%=      5-min Rain = 0
KCL2 120021Z 13007KT 35/16 A2998 RMK A01 T03470161  RH  033%=      5-min Rain = 0
KCL2 120022Z 12007KT 35/16 A2998 RMK A01 T03460162  RH  033%=      5-min Rain = 0
KCL2 120023Z 13006KT 35/16 A2998 RMK A01 T03460163  RH  034%=      5-min Rain = 0
KCL2 120024Z 13007KT 35/16 A2998 RMK A01 T03450163  RH  034%=      5-min Rain = 0
KCL2 120025Z 12008KT 35/16 A2998 RMK A01 T03450164  RH  034%=      5-min Rain = 0
KCL2 120026Z 13009KT 34/16 A2998 RMK A01 T03430163  RH  034%=      5-min Rain = 0
KCL2 120027Z 13008KT 34/16 A2998 RMK A01 T03410162  RH  034%=      5-min Rain = 0
KCL2 120028Z 13006KT 34/17 A2998 RMK A01 T03400165  RH  035%=      5-min Rain = 0
KCL2 120029Z 13006KT 34/16 A2998 RMK A01 T03390163  RH  035%=      5-min Rain = 0
KCL2 120030Z 13007KT 34/16 A2998 RMK A01 T03380162  RH  035%=      5-min Rain = 0
KCL2 120031Z 13007KT 34/16 A2998 RMK A01 T03380160  RH  035%=      5-min Rain = 0
KCL2 120032Z 14007KT 34/16 A2998 RMK A01 T03380162  RH  035%=      5-min Rain = 0
KCL2 120033Z 14007KT 34/16 A2998 RMK A01 T03380161  RH  035%=      5-min Rain = 0
KCL2 120034Z 14005KT 34/16 A2998 RMK A01 T03370161  RH  035%=      5-min Rain = 0
KCL2 120035Z 14005KT 34/16 A2998 RMK A01 T03380163  RH  035%=      5-min Rain = 0
KCL2 120036Z 16005KT 34/16 A2998 RMK A01 T03380164  RH  035%=      5-min Rain = 0
KCL2 120037Z 16005KT 34/16 A2998 RMK A01 T03370164  RH  036%=      5-min Rain = 0
KCL2 120038Z 17005KT 34/16 A2998 RMK A01 T03360164  RH  036%=      5-min Rain = 0
KCL2 120039Z 18004KT 34/17 A2998 RMK A01 T03360166  RH  036%=      5-min Rain = 0
KCL2 120040Z 17004KT 34/17 A2998 RMK A01 T03350168  RH  037%=      5-min Rain = 0
KCL2 120041Z 18003KT 34/17 A2998 RMK A01 T03350168  RH  037%=      5-min Rain = 0
KCL2 120042Z 18003KT 33/17 A2998 RMK A01 T03340167  RH  037%=      5-min Rain = 0
KCL2 120043Z 18003KT 33/17 A2998 RMK A01 T03330168  RH  037%=      5-min Rain = 0
KCL2 120044Z 18003KT 33/17 A2998 RMK A01 T03330170  RH  038%=      5-min Rain = 0
KCL2 120045Z 18004KT 33/17 A2998 RMK A01 T03320168  RH  038%=      5-min Rain = 0
KCL2 120046Z 17003KT 33/16 A2998 RMK A01 T03310164  RH  037%=      5-min Rain = 0
KCL2 120047Z 18003KT 33/17 A2998 RMK A01 T03320165  RH  037%=      5-min Rain = 0
KCL2 120048Z 18003KT 33/17 A2999 RMK A01 T03320168  RH  037%=      5-min Rain = 0
KCL2 120049Z 17003KT 33/17 A2999 RMK A01 T03320168  RH  038%=      5-min Rain = 0
KCL2 120050Z 16003KT 33/17 A2999 RMK A01 T03320168  RH  038%=      5-min Rain = 0
KCL2 120051Z 16004KT 33/17 A2999 RMK A01 T03320170  RH  038%=      5-min Rain = 0
KCL2 120052Z 16003KT 33/17 A2999 RMK A01 T03320168  RH  038%=      5-min Rain = 0
KCL2 120053Z 15002KT 33/17 A2999 RMK A01 T03320170  RH  038%=      5-min Rain = 0
KCL2 120054Z 16003KT 33/17 A2999 RMK A01 T03320171  RH  038%=      5-min Rain = 0
KCL2 120055Z 15003KT 33/17 A2999 RMK A01 T03320169  RH  038%=      5-min Rain = 0
KCL2 120056Z 15003KT 33/17 A2999 RMK A01 T03330169  RH  038%=      5-min Rain = 0
KCL2 120057Z 15003KT 33/17 A2999 RMK A01 T03330169  RH  037%=      5-min Rain = 0
KCL2 120058Z 15003KT 33/17 A2999 RMK A01 T03340168  RH  037%=      5-min Rain = 0
KCL2 120059Z 14003KT 34/17 A2999 RMK A01 T03350169  RH  037%=      5-min Rain = 0
KCL2 120100Z 14003KT 34/17 A2999 RMK A01 T03350168  RH  037%=      5-min Rain = 0
KCL2 120101Z 12003KT 34/17 A2999 RMK A01 T03350170  RH  037%=      5-min Rain = 0
KCL2 120102Z 11003KT 34/17 A2999 RMK A01 T03350169  RH  037%=      5-min Rain = 0
KCL2 120103Z 09003KT 34/17 A2999 RMK A01 T03360174  RH  038%=      5-min Rain = 0
KCL2 120104Z 09003KT 34/17 A2999 RMK A01 T03350173  RH  038%=      5-min Rain = 0
KCL2 120105Z 09003KT 34/18 A2999 RMK A01 T03350177  RH  039%=      5-min Rain = 0
KCL2 120106Z 09005KT 33/18 A2999 RMK A01 T03340181  RH  040%=      5-min Rain = 0
KCL2 120107Z 08005KT 33/18 A2999 RMK A01 T03330184  RH  041%=      5-min Rain = 0
KCL2 120108Z 09005KT 33/19 A2999 RMK A01 T03310187  RH  042%=      5-min Rain = 0
KCL2 120109Z 10005KT 33/19 A2999 RMK A01 T03300187  RH  043%=      5-min Rain = 0
KCL2 120110Z 09005KT 33/19 A2999 RMK A01 T03290189  RH  043%=      5-min Rain = 0
KCL2 120111Z 09007KT 33/19 A2999 RMK A01 T03290189  RH  044%=      5-min Rain = 0
KCL2 120112Z 09007KT 33/19 A2999 RMK A01 T03290188  RH  043%=      5-min Rain = 0
KCL2 120113Z 08006KT 33/19 A2999 RMK A01 T03280186  RH  043%=      5-min Rain = 0
KCL2 120114Z 09004KT 33/19 A2999 RMK A01 T03280188  RH  043%=      5-min Rain = 0
KCL2 120115Z 09003KT 33/19 A2999 RMK A01 T03280189  RH  044%=      5-min Rain = 0
KCL2 120116Z 08004KT 33/19 A2999 RMK A01 T03280187  RH  043%=      5-min Rain = 0
KCL2 120117Z 08005KT 33/19 A2999 RMK A01 T03270186  RH  043%=      5-min Rain = 0
KCL2 120118Z 09004KT 33/19 A2999 RMK A01 T03270187  RH  044%=      5-min Rain = 0
KCL2 120119Z 09004KT 33/19 A2999 RMK A01 T03270187  RH  044%=      5-min Rain = 0
KCL2 120120Z 10003KT 33/19 A2999 RMK A01 T03270188  RH  044%=      5-min Rain = 0
KCL2 120121Z 10003KT 33/19 A2999 RMK A01 T03270188  RH  044%=      5-min Rain = 0
KCL2 120122Z 10003KT 33/19 A2999 RMK A01 T03270189  RH  044%=      5-min Rain = 0
KCL2 120123Z 12003KT 33/19 A2999 RMK A01 T03260188  RH  044%=      5-min Rain = 0
KCL2 120124Z 12001KT 33/19 A2999 RMK A01 T03260186  RH  043%=      5-min Rain = 0
KCL2 120125Z 13005KT 33/18 A2999 RMK A01 T03260179  RH  042%=      5-min Rain = 0
KCL2 120126Z 13004KT 33/17 A2999 RMK A01 T03270174  RH  040%=      5-min Rain = 0
KCL2 120127Z 11003KT 33/18 A2999 RMK A01 T03280176  RH  041%=      5-min Rain = 0
KCL2 120128Z 11003KT 33/18 A2999 RMK A01 T03280183  RH  042%=      5-min Rain = 0
KCL2 120129Z 09003KT 33/19 A30 RMK A01 T03270185  RH  043%=      5-min Rain = 0
KCL2 120130Z 09003KT 33/19 A30 RMK A01 T03270187  RH  044%=      5-min Rain = 0
KCL2 120131Z 10004KT 33/19 A30 RMK A01 T03260187  RH  044%=      5-min Rain = 0
KCL2 120132Z 11004KT 33/18 A30 RMK A01 T03250180  RH  042%=      5-min Rain = 0
KCL2 120133Z 10004KT 33/18 A30 RMK A01 T03250182  RH  043%=      5-min Rain = 0
KCL2 120134Z 10003KT 33/18 A30 RMK A01 T03250184  RH  043%=      5-min Rain = 0
KCL2 120135Z 11003KT 32/19 A30 RMK A01 T03240185  RH  044%=      5-min Rain = 0
KCL2 120136Z 11004KT 32/18 A30 RMK A01 T03230184  RH  043%=      5-min Rain = 0
KCL2 120137Z 12005KT 32/18 A30 RMK A01 T03230175  RH  041%=      5-min Rain = 0
KCL2 120138Z 12005KT 32/17 A30 RMK A01 T03230172  RH  041%=      5-min Rain = 0
KCL2 120139Z 12005KT 32/17 A30 RMK A01 T03230170  RH  040%=      5-min Rain = 0
KCL2 120140Z 13006KT 32/17 A30 RMK A01 T03230173  RH  041%=      5-min Rain = 0
KCL2 120141Z 11004KT 32/17 A30 RMK A01 T03230173  RH  041%=      5-min Rain = 0
KCL2 120142Z 11005KT 32/18 A30 RMK A01 T03220178  RH  042%=      5-min Rain = 0
KCL2 120143Z 12006KT 32/18 A30 RMK A01 T03210175  RH  042%=      5-min Rain = 0
KCL2 120144Z 11005KT 32/17 A30 RMK A01 T03210169  RH  040%=      5-min Rain = 0
KCL2 120145Z 10005KT 32/17 A30 RMK A01 T03210172  RH  041%=      5-min Rain = 0
KCL2 120146Z 09006KT 32/18 A30 RMK A01 T03210175  RH  042%=      5-min Rain = 0
KCL2 120147Z 10005KT 32/18 A30 RMK A01 T03210181  RH  043%=      5-min Rain = 0
KCL2 120148Z 10005KT 32/18 A30 RMK A01 T03210183  RH  044%=      5-min Rain = 0
KCL2 120149Z 11007KT 32/18 A30 RMK A01 T03200182  RH  044%=      5-min Rain = 0
KCL2 120150Z 11007KT 32/18 A30 RMK A01 T03190182  RH  044%=      5-min Rain = 0
KCL2 120151Z 10006KT 32/18 A30 RMK A01 T03190183  RH  044%=      5-min Rain = 0
KCL2 120152Z 10008KT 32/18 A30 RMK A01 T03190183  RH  044%=      5-min Rain = 0
KCL2 120153Z 10005KT 32/18 A30 RMK A01 T03190183  RH  045%=      5-min Rain = 0
KCL2 120154Z 10006KT 32/18 A30 RMK A01 T03180184  RH  045%=      5-min Rain = 0
KCL2 120155Z 09006KT 32/19 A30 RMK A01 T03170185  RH  045%=      5-min Rain = 0
KCL2 120156Z 09007KT 32/19 A30 RMK A01 T03160185  RH  046%=      5-min Rain = 0
KCL2 120157Z 10007KT 32/18 A30 RMK A01 T03160184  RH  046%=      5-min Rain = 0
KCL2 120158Z 10009KT 32/19 A3001 RMK A01 T03160185  RH  046%=      5-min Rain = 0
KCL2 120159Z 11009KT 32/18 A3001 RMK A01 T03150183  RH  045%=      5-min Rain = 0
KCL2 120200Z 10013KT 32/18 A3001 RMK A01 T03150182  RH  045%=      5-min Rain = 0
KCL2 120201Z 11014KT 32/18 A3001 RMK A01 T03150182  RH  045%=      5-min Rain = 0
KCL2 120202Z 11012KT 32/18 A3001 RMK A01 T03150182  RH  045%=      5-min Rain = 0
KCL2 120203Z 11012KT 32/18 A3001 RMK A01 T03150182  RH  045%=      5-min Rain = 0
KCL2 120204Z 11012KT 32/18 A3001 RMK A01 T03150182  RH  045%=      5-min Rain = 0
KCL2 120205Z 11011KT 31/18 A3001 RMK A01 T03140181  RH  045%=      5-min Rain = 0
KCL2 120206Z 11009KT 31/18 A3001 RMK A01 T03140182  RH  045%=      5-min Rain = 0
KCL2 120207Z 11012KT 31/18 A3001 RMK A01 T03130181  RH  045%=      5-min Rain = 0
KCL2 120208Z 10011KT 31/18 A3001 RMK A01 T03130181  RH  045%=      5-min Rain = 0
KCL2 120209Z 11010KT 31/18 A3001 RMK A01 T03130182  RH  046%=      5-min Rain = 0
KCL2 120210Z 11008KT 31/18 A3001 RMK A01 T03120182  RH  046%=      5-min Rain = 0
KCL2 120211Z 12008KT 31/18 A3001 RMK A01 T03120182  RH  046%=      5-min Rain = 0
KCL2 120212Z 11008KT 31/18 A3001 RMK A01 T03110183  RH  046%=      5-min Rain = 0
KCL2 120213Z 11010KT 31/18 A3001 RMK A01 T03100181  RH  046%=      5-min Rain = 0
KCL2 120214Z 11009KT 31/18 A3002 RMK A01 T03100181  RH  046%=      5-min Rain = 0
KCL2 120215Z 12009KT 31/18 A3002 RMK A01 T03100181  RH  046%=      5-min Rain = 0
KCL2 120216Z 11009KT 31/18 A3002 RMK A01 T03100181  RH  046%=      5-min Rain = 0
KCL2 120217Z 10009KT 31/18 A3002 RMK A01 T03090182  RH  047%=      5-min Rain = 0
KCL2 120218Z 11007KT 31/18 A3002 RMK A01 T03090181  RH  046%=      5-min Rain = 0
KCL2 120219Z 11006KT 31/18 A3002 RMK A01 T03090181  RH  047%=      5-min Rain = 0
KCL2 120220Z 10007KT 31/18 A3002 RMK A01 T03080182  RH  047%=      5-min Rain = 0
KCL2 120221Z 10005KT 31/18 A3002 RMK A01 T03070182  RH  047%=      5-min Rain = 0
KCL2 120222Z 11009KT 31/18 A3002 RMK A01 T03070181  RH  047%=      5-min Rain = 0
KCL2 120223Z 11007KT 31/18 A3002 RMK A01 T03070181  RH  047%=      5-min Rain = 0
KCL2 120224Z 11009KT 31/18 A3002 RMK A01 T03070181  RH  047%=      5-min Rain = 0
KCL2 120225Z 11009KT 31/18 A3002 RMK A01 T03060181  RH  047%=      5-min Rain = 0
KCL2 120226Z 11010KT 31/18 A3002 RMK A01 T03070181  RH  047%=      5-min Rain = 0
KCL2 120227Z 11008KT 31/18 A3002 RMK A01 T03060181  RH  047%=      5-min Rain = 0
KCL2 120228Z 11007KT 31/18 A3002 RMK A01 T03060181  RH  047%=      5-min Rain = 0
KCL2 120229Z 11009KT 31/18 A3002 RMK A01 T03050181  RH  047%=      5-min Rain = 0
KCL2 120230Z 10008KT 31/18 A3002 RMK A01 T03050181  RH  047%=      5-min Rain = 0
KCL2 120231Z 10008KT 31/18 A3002 RMK A01 T03050181  RH  047%=      5-min Rain = 0
KCL2 120232Z 11008KT 31/18 A3002 RMK A01 T03050181  RH  047%=      5-min Rain = 0
KCL2 120233Z 10010KT 31/18 A3003 RMK A01 T03050180  RH  047%=      5-min Rain = 0
KCL2 120234Z 11008KT 31/18 A3003 RMK A01 T03050180  RH  047%=      5-min Rain = 0
KCL2 120235Z 11008KT 31/18 A3003 RMK A01 T03050180  RH  047%=      5-min Rain = 0
KCL2 120236Z 11009KT 30/18 A3003 RMK A01 T03040181  RH  048%=      5-min Rain = 0
KCL2 120237Z 11010KT 30/18 A3003 RMK A01 T03040181  RH  048%=      5-min Rain = 0
KCL2 120238Z 11008KT 30/18 A3003 RMK A01 T03040180  RH  048%=      5-min Rain = 0
KCL2 120239Z 10006KT 30/18 A3003 RMK A01 T03040181  RH  048%=      5-min Rain = 0
KCL2 120240Z 11008KT 30/18 A3003 RMK A01 T03040182  RH  048%=      5-min Rain = 0
KCL2 120241Z 10009KT 30/18 A3003 RMK A01 T03030181  RH  048%=      5-min Rain = 0
KCL2 120242Z 11010KT 30/18 A3003 RMK A01 T03030180  RH  048%=      5-min Rain = 0
KCL2 120243Z 11009KT 30/18 A3003 RMK A01 T03030180  RH  048%=      5-min Rain = 0
KCL2 120244Z 11008KT 30/18 A3003 RMK A01 T03030181  RH  048%=      5-min Rain = 0
KCL2 120245Z 11009KT 30/18 A3003 RMK A01 T03020180  RH  048%=      5-min Rain = 0
KCL2 120246Z 11008KT 30/18 A3003 RMK A01 T03020181  RH  048%=      5-min Rain = 0
KCL2 120247Z 11008KT 30/18 A3003 RMK A01 T03020181  RH  048%=      5-min Rain = 0
KCL2 120248Z 11009KT 30/18 A3003 RMK A01 T03010181  RH  048%=      5-min Rain = 0
KCL2 120249Z 11008KT 30/18 A3003 RMK A01 T03010181  RH  048%=      5-min Rain = 0
KCL2 120250Z 11010KT 30/18 A3003 RMK A01 T03010180  RH  048%=      5-min Rain = 0
KCL2 120251Z 11008KT 30/18 A3003 RMK A01 T03010180  RH  049%=      5-min Rain = 0
KCL2 120252Z 11007KT 30/18 A3004 RMK A01 T03000181  RH  049%=      5-min Rain = 0
KCL2 120253Z 11009KT 30/18 A3004 RMK A01 T02990181  RH  049%=      5-min Rain = 0
KCL2 120254Z 11011KT 30/18 A3004 RMK A01 T02990181  RH  049%=      5-min Rain = 0
KCL2 120255Z 11009KT 30/18 A3004 RMK A01 T02990180  RH  049%=      5-min Rain = 0
KCL2 120256Z 11009KT 30/18 A3004 RMK A01 T02990181  RH  049%=      5-min Rain = 0
KCL2 120257Z 11010KT 30/18 A3004 RMK A01 T02980180  RH  049%=      5-min Rain = 0
KCL2 120258Z 11010KT 30/18 A3004 RMK A01 T02990181  RH  049%=      5-min Rain = 0
KCL2 120259Z 11008KT 30/18 A3004 RMK A01 T02980181  RH  049%=      5-min Rain = 0
KCL2 120300Z 11009KT 30/18 A3004 RMK A01 T02980181  RH  050%=      5-min Rain = 0
KCL2 120301Z 11011KT 30/18 A3004 RMK A01 T02970181  RH  050%=      5-min Rain = 0
KCL2 120302Z 11010KT 30/18 A3004 RMK A01 T02970181  RH  050%=      5-min Rain = 0
KCL2 120303Z 11010KT 30/18 A3004 RMK A01 T02960181  RH  050%=      5-min Rain = 0
KCL2 120304Z 11010KT 30/18 A3004 RMK A01 T02960181  RH  050%=      5-min Rain = 0
KCL2 120305Z 12008KT 30/18 A3004 RMK A01 T02950181  RH  050%=      5-min Rain = 0
KCL2 120306Z 12009KT 30/18 A3004 RMK A01 T02950182  RH  050%=      5-min Rain = 0
KCL2 120307Z 11008KT 30/18 A3004 RMK A01 T02950181  RH  051%=      5-min Rain = 0
KCL2 120308Z 12011KT 29/18 A3004 RMK A01 T02940181  RH  051%=      5-min Rain = 0
KCL2 120309Z 11008KT 29/18 A3004 RMK A01 T02940181  RH  051%=      5-min Rain = 0
KCL2 120310Z 12008KT 29/18 A3004 RMK A01 T02940182  RH  051%=      5-min Rain = 0
KCL2 120311Z 12010KT 29/18 A3004 RMK A01 T02930181  RH  051%=      5-min Rain = 0
KCL2 120312Z 12011KT 29/18 A3004 RMK A01 T02930181  RH  051%=      5-min Rain = 0
KCL2 120313Z 12011KT 29/18 A3005 RMK A01 T02930181  RH  051%=      5-min Rain = 0
KCL2 120314Z 12011KT 29/18 A3005 RMK A01 T02930181  RH  051%=      5-min Rain = 0
KCL2 120315Z 13010KT 29/18 A3005 RMK A01 T02930180  RH  051%=      5-min Rain = 0
KCL2 120316Z 13010KT 29/18 A3005 RMK A01 T02940181  RH  051%=      5-min Rain = 0
KCL2 120317Z 13009KT 29/18 A3005 RMK A01 T02940182  RH  051%=      5-min Rain = 0
KCL2 120318Z 13010KT 29/18 A3005 RMK A01 T02930181  RH  051%=      5-min Rain = 0
KCL2 120319Z 13009KT 29/18 A3005 RMK A01 T02930182  RH  051%=      5-min Rain = 0
KCL2 120320Z 14008KT 29/18 A3005 RMK A01 T02930181  RH  051%=      5-min Rain = 0
KCL2 120321Z 13009KT 29/18 A3005 RMK A01 T02930182  RH  051%=      5-min Rain = 0
KCL2 120322Z 13010KT 29/18 A3005 RMK A01 T02920181  RH  051%=      5-min Rain = 0
KCL2 120323Z 14009KT 29/18 A3005 RMK A01 T02920181  RH  051%=      5-min Rain = 0
KCL2 120324Z 15009KT 29/18 A3005 RMK A01 T02920180  RH  051%=      5-min Rain = 0
KCL2 120325Z 15010KT 29/18 A3006 RMK A01 T02920180  RH  051%=      5-min Rain = 0
KCL2 120326Z 15012KT 29/18 A3006 RMK A01 T02920180  RH  051%=      5-min Rain = 0
KCL2 120327Z 16009KT 29/18 A3006 RMK A01 T02920180  RH  051%=      5-min Rain = 0
KCL2 120328Z 15009KT 29/18 A3006 RMK A01 T02930180  RH  051%=      5-min Rain = 0
KCL2 120329Z 15010KT 29/18 A3006 RMK A01 T02920180  RH  051%=      5-min Rain = 0
KCL2 120330Z 16009KT 29/18 A3006 RMK A01 T02920180  RH  051%=      5-min Rain = 0
KCL2 120331Z 15009KT 29/18 A3006 RMK A01 T02920180  RH  051%=      5-min Rain = 0
KCL2 120332Z 15012KT 29/18 A3006 RMK A01 T02920180  RH  051%=      5-min Rain = 0
KCL2 120333Z 15010KT 29/18 A3006 RMK A01 T02920180  RH  051%=      5-min Rain = 0
KCL2 120334Z 15010KT 29/18 A3006 RMK A01 T02920180  RH  051%=      5-min Rain = 0
KCL2 120335Z 14009KT 29/18 A3006 RMK A01 T02930181  RH  051%=      5-min Rain = 0
KCL2 120336Z 14009KT 29/18 A3006 RMK A01 T02920181  RH  051%=      5-min Rain = 0
KCL2 120337Z 14009KT 29/18 A3006 RMK A01 T02910181  RH  051%=      5-min Rain = 0
KCL2 120338Z 14009KT 29/18 A3006 RMK A01 T02910181  RH  051%=      5-min Rain = 0
KCL2 120339Z 14010KT 29/18 A3006 RMK A01 T02910181  RH  051%=      5-min Rain = 0
KCL2 120340Z 14010KT 29/18 A3006 RMK A01 T02910181  RH  051%=      5-min Rain = 0
KCL2 120341Z 14008KT 29/18 A3006 RMK A01 T02910181  RH  052%=      5-min Rain = 0
KCL2 120342Z 15009KT 29/18 A3006 RMK A01 T02920182  RH  052%=      5-min Rain = 0
KCL2 120343Z 15009KT 29/18 A3006 RMK A01 T02910182  RH  052%=      5-min Rain = 0
KCL2 120344Z 15009KT 29/18 A3006 RMK A01 T02920182  RH  052%=      5-min Rain = 0
KCL2 120345Z 15008KT 29/18 A3006 RMK A01 T02910182  RH  052%=      5-min Rain = 0
KCL2 120346Z 15009KT 29/18 A3006 RMK A01 T02910182  RH  052%=      5-min Rain = 0
KCL2 120347Z 15009KT 29/18 A3006 RMK A01 T02910182  RH  052%=      5-min Rain = 0
KCL2 120348Z 15008KT 29/18 A3006 RMK A01 T02900182  RH  052%=      5-min Rain = 0
KCL2 120349Z 16008KT 29/18 A3006 RMK A01 T02890182  RH  052%=      5-min Rain = 0
KCL2 120350Z 15008KT 29/18 A3006 RMK A01 T02880181  RH  052%=      5-min Rain = 0
KCL2 120351Z 15007KT 29/18 A3006 RMK A01 T02880182  RH  053%=      5-min Rain = 0
KCL2 120352Z 15007KT 29/18 A3006 RMK A01 T02870182  RH  053%=      5-min Rain = 0
KCL2 120353Z 16007KT 29/18 A3006 RMK A01 T02860182  RH  053%=      5-min Rain = 0
KCL2 120354Z 16009KT 29/18 A3006 RMK A01 T02850182  RH  054%=      5-min Rain = 0
KCL2 120355Z 15008KT 28/18 A3006 RMK A01 T02840181  RH  054%=      5-min Rain = 0
KCL2 120356Z 16007KT 28/18 A3006 RMK A01 T02840181  RH  054%=      5-min Rain = 0
KCL2 120357Z 16007KT 28/18 A3006 RMK A01 T02830182  RH  054%=      5-min Rain = 0
KCL2 120358Z 16007KT 28/18 A3006 RMK A01 T02820181  RH  054%=      5-min Rain = 0
KCL2 120359Z 16005KT 28/18 A3006 RMK A01 T02820181  RH  054%=      5-min Rain = 0
KCL2 120400Z 15009KT 28/18 A3006 RMK A01 T02810181  RH  055%=      5-min Rain = 0
KCL2 120401Z 15008KT 28/18 A3006 RMK A01 T02800181  RH  055%=      5-min Rain = 0
KCL2 120402Z 15008KT 28/18 A3007 RMK A01 T02800181  RH  055%=      5-min Rain = 0
KCL2 120403Z 15008KT 28/18 A3007 RMK A01 T02800181  RH  055%=      5-min Rain = 0
KCL2 120404Z 15008KT 28/18 A3007 RMK A01 T02800181  RH  055%=      5-min Rain = 0
KCL2 120405Z 15007KT 28/18 A3007 RMK A01 T02800181  RH  055%=      5-min Rain = 0
KCL2 120406Z 15007KT 28/18 A3007 RMK A01 T02800181  RH  055%=      5-min Rain = 0
KCL2 120407Z 15008KT 28/18 A3007 RMK A01 T02800181  RH  055%=      5-min Rain = 0
KCL2 120408Z 15008KT 28/18 A3007 RMK A01 T02790181  RH  055%=      5-min Rain = 0
KCL2 120409Z 16008KT 28/18 A3007 RMK A01 T02790180  RH  055%=      5-min Rain = 0
KCL2 120410Z 15007KT 28/18 A3007 RMK A01 T02790180  RH  055%=      5-min Rain = 0
KCL2 120411Z 16007KT 28/18 A3007 RMK A01 T02790180  RH  055%=      5-min Rain = 0
KCL2 120412Z 15006KT 28/18 A3007 RMK A01 T02790180  RH  055%=      5-min Rain = 0
KCL2 120413Z 15008KT 28/18 A3007 RMK A01 T02790180  RH  055%=      5-min Rain = 0
KCL2 120414Z 15009KT 28/18 A3007 RMK A01 T02780180  RH  055%=      5-min Rain = 0
KCL2 120415Z 15008KT 28/18 A3007 RMK A01 T02780179  RH  055%=      5-min Rain = 0
KCL2 120416Z 16009KT 28/18 A3007 RMK A01 T02780178  RH  055%=      5-min Rain = 0
KCL2 120417Z 16007KT 28/18 A3007 RMK A01 T02780178  RH  055%=      5-min Rain = 0
KCL2 120418Z 15007KT 28/18 A3007 RMK A01 T02780178  RH  055%=      5-min Rain = 0
KCL2 120419Z 15007KT 28/18 A3007 RMK A01 T02780178  RH  055%=      5-min Rain = 0
KCL2 120420Z 15008KT 28/18 A3007 RMK A01 T02770177  RH  054%=      5-min Rain = 0
KCL2 120421Z 15008KT 28/18 A3007 RMK A01 T02780177  RH  054%=      5-min Rain = 0
KCL2 120422Z 15008KT 28/18 A3007 RMK A01 T02780177  RH  054%=      5-min Rain = 0
KCL2 120423Z 15009KT 28/18 A3007 RMK A01 T02770177  RH  054%=      5-min Rain = 0
KCL2 120424Z 16009KT 28/18 A3007 RMK A01 T02770176  RH  054%=      5-min Rain = 0
KCL2 120425Z 15008KT 28/18 A3007 RMK A01 T02770175  RH  054%=      5-min Rain = 0
KCL2 120426Z 15009KT 28/18 A3007 RMK A01 T02770175  RH  054%=      5-min Rain = 0
KCL2 120427Z 16008KT 28/18 A3007 RMK A01 T02770175  RH  054%=      5-min Rain = 0
KCL2 120428Z 15009KT 28/18 A3007 RMK A01 T02760175  RH  054%=      5-min Rain = 0
KCL2 120429Z 15007KT 28/18 A3007 RMK A01 T02770175  RH  054%=      5-min Rain = 0
KCL2 120430Z 14007KT 28/17 A3007 RMK A01 T02770174  RH  054%=      5-min Rain = 0
KCL2 120431Z 15007KT 28/18 A3007 RMK A01 T02770175  RH  054%=      5-min Rain = 0
KCL2 120432Z 15006KT 28/18 A3007 RMK A01 T02770175  RH  054%=      5-min Rain = 0
KCL2 120433Z 15007KT 28/18 A3007 RMK A01 T02760175  RH  054%=      5-min Rain = 0
KCL2 120434Z 15008KT 28/18 A3007 RMK A01 T02750175  RH  054%=      5-min Rain = 0
KCL2 120435Z 15009KT 28/18 A3007 RMK A01 T02750175  RH  054%=      5-min Rain = 0
KCL2 120436Z 14008KT 28/18 A3007 RMK A01 T02750175  RH  055%=      5-min Rain = 0
KCL2 120437Z 14008KT 28/18 A3007 RMK A01 T02760176  RH  055%=      5-min Rain = 0
KCL2 120438Z 14007KT 28/18 A3007 RMK A01 T02750176  RH  055%=      5-min Rain = 0
KCL2 120439Z 14007KT 27/18 A3007 RMK A01 T02740177  RH  055%=      5-min Rain = 0
KCL2 120440Z 14008KT 27/18 A3007 RMK A01 T02740176  RH  055%=      5-min Rain = 0
KCL2 120441Z 14007KT 27/18 A3007 RMK A01 T02740176  RH  055%=      5-min Rain = 0
KCL2 120442Z 14006KT 27/18 A3007 RMK A01 T02740177  RH  056%=      5-min Rain = 0
KCL2 120443Z 14008KT 27/18 A3007 RMK A01 T02720177  RH  056%=      5-min Rain = 0
KCL2 120444Z 14008KT 27/18 A3007 RMK A01 T02720177  RH  056%=      5-min Rain = 0
KCL2 120445Z 14008KT 27/18 A3007 RMK A01 T02720177  RH  056%=      5-min Rain = 0
KCL2 120446Z 14008KT 27/18 A3007 RMK A01 T02710178  RH  057%=      5-min Rain = 0
KCL2 120447Z 14007KT 27/18 A3007 RMK A01 T02700177  RH  057%=      5-min Rain = 0
KCL2 120448Z 14008KT 27/18 A3007 RMK A01 T02700178  RH  057%=      5-min Rain = 0
KCL2 120449Z 14007KT 27/18 A3007 RMK A01 T02690177  RH  057%=      5-min Rain = 0
KCL2 120450Z 14007KT 27/18 A3007 RMK A01 T02700178  RH  057%=      5-min Rain = 0
KCL2 120451Z 15008KT 27/18 A3007 RMK A01 T02700178  RH  057%=      5-min Rain = 0
KCL2 120452Z 15007KT 27/18 A3007 RMK A01 T02690178  RH  057%=      5-min Rain = 0
KCL2 120453Z 15007KT 27/18 A3007 RMK A01 T02690178  RH  057%=      5-min Rain = 0
KCL2 120454Z 15008KT 27/18 A3007 RMK A01 T02690177  RH  057%=      5-min Rain = 0
KCL2 120455Z 15009KT 27/18 A3007 RMK A01 T02690177  RH  057%=      5-min Rain = 0
KCL2 120456Z 15009KT 27/18 A3007 RMK A01 T02690176  RH  057%=      5-min Rain = 0
KCL2 120457Z 15008KT 27/18 A3007 RMK A01 T02700177  RH  057%=      5-min Rain = 0
KCL2 120458Z 15008KT 27/18 A3007 RMK A01 T02700177  RH  057%=      5-min Rain = 0
KCL2 120459Z 15008KT 27/18 A3007 RMK A01 T02690177  RH  057%=      5-min Rain = 0
KCL2 120500Z 15008KT 27/18 A3007 RMK A01 T02690177  RH  057%=      5-min Rain = 0

Page generated in 0.2194 seconds.